Flight Track Log - Related Links

Times and Time Zones

All times are in EDT time to prevent confusion due to time zone crossing. See the UAL139 flight status page for this flight to view local times or setup timezone preferences in your user account.


Time Position Orientation Groundspeed Altitude Reporting Facility
EDT Latitude Longitude Course Direction KTS MPH feet Rate Location/Type
Mon 04:58:46 PM 39.8920 -104.6960 180° South 74 85  Level FlightAware ADS-B
Mon 04:59:07 PM 39.8800 -104.6960 180° South 153 176 5,200 9,273 Climbing FlightAware ADS-B
Mon 04:59:19 PM 39.8700 -104.6960 180° South 187 215 5,100 1,000 Descending FlightAware ADS-B
Mon 04:59:43 PM 39.8460 -104.6970 182° South 207 238 5,800 1,650 Climbing FlightAware ADS-B
Mon 04:59:59 PM 39.8320 -104.7010 192° South 210 242 6,200 1,500 Climbing FlightAware ADS-B
Mon 05:00:03 PM 39.8290 -104.7030 207° Southwest 211 243 6,300 1,000 Climbing FlightAware ADS-B
Mon 05:00:11 PM 39.8230 -104.7100 222° Southwest 219 252 6,400 1,125 Climbing FlightAware ADS-B
Mon 05:00:19 PM 39.8180 -104.7180 231° Southwest 221 254 6,600 1,000 Climbing FlightAware ADS-B
Mon 05:00:23 PM 39.8170 -104.7240 258° West 224 258 6,600 750 Level FlightAware ADS-B
Mon 05:00:27 PM 39.8160 -104.7290 255° West 225 259 6,700 1,250 Climbing FlightAware ADS-B
Mon 05:00:47 PM 39.8210 -104.7570 283° West 233 268 7,100 882 Climbing FlightAware ADS-B
Mon 05:01:01 PM 39.8300 -104.7730 306° West 243 280 7,200 188 Climbing FlightAware ADS-B
Mon 05:01:19 PM 39.8430 -104.7940 309° West 266 306 7,200 450 Level FlightAware ADS-B
Mon 05:01:41 PM 39.8610 -104.8230 309° West 288 331 7,500 1,029 Climbing FlightAware ADS-B
Mon 05:01:54 PM 39.8700 -104.8410 303° West 294 338 7,800 2,286 Climbing FlightAware ADS-B
Mon 05:02:02 PM 39.8740 -104.8550 290° West 291 335 8,300 2,609 Climbing FlightAware ADS-B
Mon 05:02:17 PM 39.8790 -104.8820 284° West 296 341 8,800 2,108 Climbing FlightAware ADS-B
Mon 05:02:39 PM 39.8830 -104.9190 278° West 299 344 9,600 1,821 Climbing FlightAware ADS-B
Mon 05:03:13 PM 39.8920 -104.9820 281° West 324 373 10,500 1,412 Climbing FlightAware ADS-B
Mon 05:03:47 PM 39.9000 -105.0510 279° West 352 405 11,200 1,588 Climbing FlightAware ADS-B
Mon 05:04:21 PM 39.9090 -105.1240 279° West 362 417 12,300 2,143 Climbing FlightAware ADS-B
Mon 05:04:57 PM 39.9180 -105.2020 279° West 367 422 13,700 2,333 Climbing FlightAware ADS-B
Mon 05:05:33 PM 39.9280 -105.2820 279° West 371 427 15,100 2,333 Climbing FlightAware ADS-B
Mon 05:06:09 PM 39.9360 -105.3630 277° West 373 429 16,500 2,143 Climbing FlightAware ADS-B
Mon 05:06:43 PM 39.9390 -105.4390 273° West 380 437 17,600 2,057 Climbing FlightAware ADS-B
Mon 05:07:19 PM 39.9450 -105.5200 276° West 381 438 18,900 1,917 Climbing FlightAware ADS-B
Mon 05:07:55 PM 39.9510 -105.6040 275° West 387 445 19,900 1,676 Climbing FlightAware ADS-B
Mon 05:08:27 PM 39.9560 -105.6790 275° West 394 453 20,800 1,588 Climbing FlightAware ADS-B
Mon 05:09:03 PM 39.9610 -105.7640 274° West 402 463 21,700 1,417 Climbing FlightAware ADS-B
Mon 05:09:39 PM 39.9660 -105.8490 274° West 409 471 22,500 943 Climbing FlightAware ADS-B
Mon 05:10:13 PM 39.9720 -105.9360 275° West 429 494 22,800 600 Climbing FlightAware ADS-B
Mon 05:10:49 PM 39.9780 -106.0320 275° West 447 514 23,200 545 Climbing FlightAware ADS-B
Mon 05:11:19 PM 39.9830 -106.1120 275° West 463 533 23,400 545 Climbing FlightAware ADS-B
Mon 05:11:55 PM 39.9890 -106.2160 274° West 478 550 23,800 706 Climbing FlightAware ADS-B
Mon 05:12:27 PM 39.9950 -106.3070 275° West 488 562 24,200 618 Climbing FlightAware ADS-B
Mon 05:13:03 PM 40.0020 -106.4140 275° West 501 577 24,500 583 Climbing FlightAware ADS-B
Mon 05:13:39 PM 40.0140 -106.5210 278° West 510 587 24,900 857 Climbing FlightAware ADS-B
Mon 05:14:13 PM 40.0290 -106.6250 281° West 515 593 25,500 943 Climbing FlightAware ADS-B
Mon 05:14:49 PM 40.0450 -106.7350 281° West 518 596 26,000 971 Climbing FlightAware ADS-B
Mon 05:15:21 PM 40.0590 -106.8330 281° West 519 597 26,600 692 Climbing FlightAware ADS-B
Mon 05:16:07 PM 40.0760 -106.9600 280° West 519 597 26,900 220 Climbing FlightAware ADS-B
Mon 05:16:43 PM 40.0890 -107.0550 280° West 519 597 26,900  Level FlightAware ADS-B
Mon 05:17:19 PM 40.1020 -107.1490 280° West 519 597 26,900 2,211 Level FlightAware ADS-B
Mon 05:17:59 PM 40.1250 -107.3110 281° West 512 589 29,700 2,917 Climbing FlightAware ADS-B
Mon 05:18:31 PM 40.1390 -107.4120 280° West 509 586 30,400 1,258 Climbing FlightAware ADS-B
Mon 05:19:01 PM 40.1510 -107.4970 280° West 506 582 31,000 1,250 Climbing FlightAware ADS-B
Mon 05:19:43 PM 40.1690 -107.6310 280° West 503 579 31,900 1,098 Climbing FlightAware ADS-B
Mon 05:20:23 PM 40.1830 -107.7330 280° West 503 579 32,500 960 Climbing FlightAware ADS-B
Mon 05:20:58 PM 40.1990 -107.8540 280° West 502 578 33,100 986 Climbing FlightAware ADS-B
Mon 05:21:36 PM 40.2140 -107.9660 280° West 502 578 33,700 930 Climbing FlightAware ADS-B
Mon 05:22:09 PM 40.2250 -108.0560 279° West 501 577 34,200 923 Climbing FlightAware ADS-B
Mon 05:22:41 PM 40.2380 -108.1520 280° West 503 579 34,700 833 Climbing FlightAware ADS-B
Mon 05:23:21 PM 40.2530 -108.2690 280° West 503 579 35,200 750 Climbing FlightAware ADS-B
Mon 05:23:53 PM 40.2670 -108.3750 280° West 506 582 35,600 640 Climbing FlightAware ADS-B
Mon 05:24:36 PM 40.2810 -108.4840 280° West 505 581 36,000 289 Climbing FlightAware ADS-B
Mon 05:25:16 PM 40.2990 -108.6290 279° West 504 580 36,000  Level FlightAware ADS-B
Mon 05:25:51 PM 40.3120 -108.7320 279° West 503 579 36,000  Level FlightAware ADS-B
Mon 05:26:26 PM 40.3230 -108.8260 279° West 503 579 36,000  Level FlightAware ADS-B
Mon 05:27:00 PM 40.3380 -108.9400 280° West 506 582 36,000  Level FlightAware ADS-B
Mon 05:27:38 PM 40.3490 -109.0380 278° West 501 577 36,000  Level FlightAware ADS-B
Mon 05:28:10 PM 40.3630 -109.1510 279° West 502 578 36,000  Level FlightAware ADS-B
Mon 05:28:56 PM 40.3800 -109.2900 279° West 504 580 36,000  Level FlightAware ADS-B
Mon 05:29:27 PM 40.3910 -109.3820 279° West 503 579 36,000  Level FlightAware ADS-B
Mon 05:30:11 PM 40.4120 -109.4930 284° West 506 582 36,000  Level FlightAware ADS-B
Mon 05:30:57 PM 40.4340 -109.6090 284° West 507 583 36,000  Level FlightAware ADS-B
Mon 05:31:46 PM 40.4610 -109.7690 283° West 500 575 36,000  Level FlightAware ADS-B
Mon 05:32:23 PM 40.4740 -109.8630 280° West 500 575 36,000  Level FlightAware ADS-B
Mon 05:33:00 PM 40.4880 -109.9570 281° West 500 575 36,000  Level FlightAware ADS-B
Mon 05:33:33 PM 40.4960 -110.1120 274° West 501 577 36,000  Level FlightAware ADS-B
Mon 05:34:07 PM 40.5049 -110.2250 276° West 502 578 36,000  Level FlightAware ADS-B
Mon 05:34:38 PM 40.5113 -110.3170 275° West 502 578 36,000  Level FlightAware ADS-B
Mon 05:35:09 PM 40.5148 -110.4110 273° West 503 579 36,000  Level FlightAware ADS-B
Mon 05:35:46 PM 40.5196 -110.5240 273° West 506 582 36,000  Level FlightAware ADS-B
Mon 05:36:04 PM 40.5252 -110.5810 277° West 507 583 36,000  Level FlightAware ADS-B
Mon 05:36:35 PM 40.5360 -110.6740 279° West 508 585 36,000  Level FlightAware ADS-B
Mon 05:37:06 PM 40.5466 -110.7660 279° West 506 582 36,000  Level FlightAware ADS-B
Mon 05:37:36 PM 40.5567 -110.8580 278° West 503 579 36,000  Level FlightAware ADS-B
Mon 05:38:06 PM 40.5664 -110.9510 278° West 503 579 36,000  Level FlightAware ADS-B
Mon 05:38:37 PM 40.5759 -111.0430 278° West 504 580 36,000  Level FlightAware ADS-B
Mon 05:39:08 PM 40.5854 -111.1360 278° West 500 575 36,000  Level FlightAware ADS-B
Mon 05:39:38 PM 40.5946 -111.2280 278° West 500 575 36,000  Level FlightAware ADS-B
Mon 05:40:08 PM 40.6037 -111.3190 278° West 500 575 36,000  Level FlightAware ADS-B
Mon 05:40:39 PM 40.6127 -111.4100 277° West 501 577 36,000  Level FlightAware ADS-B
Mon 05:41:09 PM 40.6219 -111.5010 278° West 503 579 36,000  Level FlightAware ADS-B
Mon 05:41:39 PM 40.6308 -111.5920 277° West 503 579 36,000  Level FlightAware ADS-B
Mon 05:42:09 PM 40.6398 -111.6830 277° West 504 580 36,000  Level FlightAware ADS-B
Mon 05:42:39 PM 40.6488 -111.7750 277° West 502 578 36,000  Level FlightAware ADS-B
Mon 05:43:10 PM 40.6578 -111.8680 277° West 501 577 36,000  Level FlightAware ADS-B
Mon 05:43:41 PM 40.6666 -111.9600 277° West 502 578 36,000  Level FlightAware ADS-B
Mon 05:44:11 PM 40.6756 -112.0540 277° West 505 581 36,000  Level FlightAware ADS-B
Mon 05:44:43 PM 40.6845 -112.1490 277° West 505 581 36,000  Level FlightAware ADS-B
Mon 05:45:13 PM 40.6930 -112.2410 277° West 504 580 36,000  Level FlightAware ADS-B
Mon 05:45:45 PM 40.7020 -112.3370 277° West 505 581 36,000  Level FlightAware ADS-B
Mon 05:46:15 PM 40.7104 -112.4300 277° West 506 582 36,000  Level FlightAware ADS-B
Mon 05:46:40 PM 40.7167 -112.5070 276° West 505 581 36,000  Level FlightAware ADS-B
Mon 05:47:11 PM 40.7203 -112.6010 273° West 502 578 36,000  Level FlightAware ADS-B
Mon 05:47:42 PM 40.7211 -112.6960 271° West 500 575 36,000  Level FlightAware ADS-B
Mon 05:48:13 PM 40.7220 -112.7900 271° West 502 578 36,000  Level FlightAware ADS-B
Mon 05:48:44 PM 40.7228 -112.8840 271° West 502 578 36,000  Level FlightAware ADS-B
Mon 05:49:14 PM 40.7235 -112.9770 271° West 503 579 36,000  Level FlightAware ADS-B
Mon 05:49:44 PM 40.7240 -113.0690 270° West 502 578 36,000  Level FlightAware ADS-B
Mon 05:50:16 PM 40.7245 -113.1670 270° West 500 575 36,000  Level FlightAware ADS-B
Mon 05:50:46 PM 40.7250 -113.2580 270° West 499 574 36,000  Level FlightAware ADS-B
Mon 05:51:17 PM 40.7253 -113.3520 270° West 499 574 36,000  Level FlightAware ADS-B
Mon 05:51:48 PM 40.7257 -113.4430 270° West 498 573 36,000  Level FlightAware ADS-B
Mon 05:52:19 PM 40.7259 -113.5380 270° West 498 573 36,000  Level FlightAware ADS-B
Mon 05:52:49 PM 40.7260 -113.6300 270° West 494 568 36,000  Level FlightAware ADS-B
Mon 05:53:20 PM 40.7261 -113.7210 270° West 491 565 36,000  Level FlightAware ADS-B
Mon 05:53:55 PM 40.7248 -113.8260 269° West 492 566 36,000  Level FlightAware ADS-B
Mon 05:54:26 PM 40.7208 -113.9160 267° West 489 563 36,000  Level FlightAware ADS-B
Mon 05:54:59 PM 40.7164 -114.0150 267° West 490 564 36,000  Level FlightAware ADS-B
Mon 05:55:29 PM 40.7126 -114.1070 267° West 491 565 36,000  Level FlightAware ADS-B
Mon 05:56:04 PM 40.7086 -114.2090 267° West 491 565 36,000  Level FlightAware ADS-B
Mon 05:56:35 PM 40.7050 -114.3010 267° West 490 564 36,000  Level FlightAware ADS-B
Mon 05:57:06 PM 40.7014 -114.3920 267° West 485 558 36,000  Level FlightAware ADS-B
Mon 05:57:36 PM 40.6978 -114.4800 267° West 486 559 36,000  Level FlightAware ADS-B
Mon 05:58:06 PM 40.6940 -114.5690 267° West 486 559 36,000  Level FlightAware ADS-B
Mon 05:58:55 PM 40.6850 -114.5920 243° Southwest 488 562 36,000  Level FlightAware ADS-B
Mon 05:59:31 PM 40.6800 -114.6830 266° West 488 562 36,000  Level FlightAware ADS-B
Mon 06:00:01 PM 40.6791 -114.9080 270° West 484 557 36,000  Level FlightAware ADS-B
Mon 06:00:31 PM 40.6750 -114.9970 267° West 484 557 36,000  Level FlightAware ADS-B
Mon 06:01:02 PM 40.6709 -115.0850 267° West 483 556 36,000  Level FlightAware ADS-B
Mon 06:01:32 PM 40.6667 -115.1730 266° West 481 554 36,000  Level FlightAware ADS-B
Mon 06:02:02 PM 40.6623 -115.2610 266° West 481 554 36,000  Level FlightAware ADS-B
Mon 06:02:33 PM 40.6578 -115.3520 266° West 482 555 36,000  Level FlightAware ADS-B
Mon 06:03:10 PM 40.6500 -115.2350 95° East 488 562 36,000  Level FlightAware ADS-B
Mon 06:03:46 PM 40.6460 -115.3260 267° West 488 562 36,000  Level FlightAware ADS-B
Mon 06:04:39 PM 40.6392 -115.7170 269° West 477 549 36,000  Level FlightAware ADS-B
Mon 06:05:10 PM 40.6344 -115.8060 266° West 478 550 36,000  Level FlightAware ADS-B
Mon 06:05:41 PM 40.6295 -115.8970 266° West 480 552 36,000  Level FlightAware ADS-B
Mon 06:06:13 PM 40.6244 -115.9900 266° West 480 552 36,000  Level FlightAware ADS-B
Mon 06:06:44 PM 40.6195 -116.0780 266° West 479 551 36,000 387 Level FlightAware ADS-B
Mon 06:07:15 PM 40.6143 -116.1700 266° West 479 551 36,400 627 Climbing FlightAware ADS-B
Mon 06:07:51 PM 40.6097 -116.2531 266° West 481 554 36,700 490 Climbing Salt Lake Center
Mon 06:08:53 PM 40.6000 -116.4197 266° West 481 554 37,200 634 Climbing Salt Lake Center
Mon 06:09:54 PM 40.5883 -116.6144 266° West 480 552 38,000 390 Climbing Salt Lake Center
Mon 06:10:56 PM 40.5792 -116.7794 266° West 479 551 38,000  Level Salt Lake Center
Mon 06:11:58 PM 40.5675 -116.9708 265° West 479 551 38,000  Level Salt Lake Center
Mon 06:17:45 PM 40.4950 -117.9800 265° West 476 548 38,000  Level FlightAware ADS-B
Mon 06:18:15 PM 40.4890 -118.0620 265° West 476 548 38,000  Level FlightAware ADS-B
Mon 06:18:51 PM 40.4820 -118.1530 264° West 475 547 38,000  Level FlightAware ADS-B
Mon 06:19:27 PM 40.4740 -118.2690 265° West 469 540 38,000  Level FlightAware ADS-B
Mon 06:20:04 PM 40.4660 -118.3670 264° West 469 540 38,000  Level FlightAware ADS-B
Mon 06:20:40 PM 40.4580 -118.4680 264° West 471 542 38,000  Level FlightAware ADS-B
Mon 06:21:16 PM 40.4510 -118.5750 265° West 474 545 38,000  Level FlightAware ADS-B
Mon 06:21:46 PM 40.4490 -118.6640 268° West 480 552 38,000  Level FlightAware ADS-B
Mon 06:22:30 PM 40.4490 -118.7820 270° West 481 554 38,000  Level FlightAware ADS-B
Mon 06:23:06 PM 40.4490 -118.8710 270° West 481 554 38,000  Level FlightAware ADS-B
Mon 06:23:41 PM 40.4490 -119.0030 270° West 480 552 38,000  Level FlightAware ADS-B
Mon 06:24:19 PM 40.4480 -119.1130 269° West 480 552 38,000  Level FlightAware ADS-B
Mon 06:24:51 PM 40.4480 -119.2060 270° West 475 547 38,000  Level FlightAware ADS-B
Mon 06:25:27 PM 40.4470 -119.3090 269° West 473 544 38,000  Level FlightAware ADS-B
Mon 06:26:03 PM 40.4470 -119.4130 270° West 471 542 38,000  Level FlightAware ADS-B
Mon 06:26:36 PM 40.4460 -119.5040 269° West 473 544 38,000  Level FlightAware ADS-B
Mon 06:27:11 PM 40.4460 -119.6080 270° West 472 543 38,000  Level FlightAware ADS-B
Mon 06:27:47 PM 40.4450 -119.7100 269° West 474 545 38,000  Level FlightAware ADS-B
Mon 06:28:23 PM 40.4440 -119.8120 269° West 473 544 38,000  Level FlightAware ADS-B
Mon 06:28:55 PM 40.4430 -119.9050 269° West 473 544 38,000  Level FlightAware ADS-B
Mon 06:29:31 PM 40.4420 -120.0070 269° West 474 545 38,000  Level FlightAware ADS-B
Mon 06:30:09 PM 40.4400 -120.1170 269° West 474 545 38,000  Level FlightAware ADS-B
Mon 06:30:43 PM 40.4390 -120.2150 269° West 474 545 38,000  Level FlightAware ADS-B
Mon 06:31:16 PM 40.4380 -120.2960 269° West 475 547 38,000  Level FlightAware ADS-B
Mon 06:31:50 PM 40.4370 -120.3990 269° West 471 542 38,000  Level FlightAware ADS-B
Mon 06:32:24 PM 40.4350 -120.4940 268° West 467 537 38,000  Level FlightAware ADS-B
Mon 06:32:58 PM 40.4340 -120.5890 269° West 469 540 38,000  Level FlightAware ADS-B
Mon 06:33:38 PM 40.4320 -120.7060 269° West 469 540 38,000  Level FlightAware ADS-B
Mon 06:34:17 PM 40.4300 -120.8040 268° West 469 540 38,000  Level FlightAware ADS-B
Mon 06:34:55 PM 40.4280 -120.9250 269° West 472 543 38,000  Level FlightAware ADS-B
Mon 06:35:29 PM 40.4260 -121.0260 269° West 473 544 38,000  Level FlightAware ADS-B
Mon 06:36:20 PM 40.4230 -121.1690 268° West 473 544 38,000  Level FlightAware ADS-B
Mon 06:36:53 PM 40.4210 -121.2660 268° West 473 544 38,000  Level FlightAware ADS-B
Mon 06:37:27 PM 40.4190 -121.3640 268° West 472 543 38,000  Level FlightAware ADS-B
Mon 06:38:00 PM 40.4170 -121.4560 268° West 474 545 38,000  Level FlightAware ADS-B
Mon 06:38:39 PM 40.4140 -121.5700 268° West 473 544 38,000  Level FlightAware ADS-B
Mon 06:39:10 PM 40.4120 -121.6560 268° West 472 543 38,000  Level FlightAware ADS-B
Mon 06:39:45 PM 40.4090 -121.7580 268° West 473 544 38,000  Level FlightAware ADS-B
Mon 06:40:20 PM 40.4060 -121.8570 268° West 473 544 38,000  Level FlightAware ADS-B
Mon 06:40:59 PM 40.4030 -121.9730 268° West 475 547 38,000  Level FlightAware ADS-B
Mon 06:41:35 PM 40.4000 -122.0720 268° West 476 548 38,000  Level FlightAware ADS-B
Mon 06:42:05 PM 40.3980 -122.1600 268° West 477 549 38,000  Level FlightAware ADS-B
Mon 06:42:42 PM 40.3950 -122.2620 268° West 476 548 38,000  Level FlightAware ADS-B
Mon 06:43:16 PM 40.3910 -122.3650 267° West 474 545 38,000  Level FlightAware ADS-B
Mon 06:43:51 PM 40.3880 -122.4620 268° West 473 544 38,000  Level FlightAware ADS-B
Mon 06:44:30 PM 40.3850 -122.5760 268° West 470 541 38,000  Level FlightAware ADS-B
Mon 06:45:06 PM 40.3810 -122.6800 267° West 468 539 38,000  Level FlightAware ADS-B
Mon 06:45:38 PM 40.3780 -122.7730 268° West 469 540 38,000  Level FlightAware ADS-B
Mon 06:46:12 PM 40.3740 -122.8690 267° West 464 534 38,000  Level FlightAware ADS-B
Mon 06:46:48 PM 40.3710 -122.9670 268° West 462 532 38,000  Level FlightAware ADS-B
Mon 06:47:22 PM 40.3670 -123.0600 267° West 463 533 38,000  Level FlightAware ADS-B
Mon 06:47:58 PM 40.3630 -123.1630 267° West 461 531 38,000  Level FlightAware ADS-B
Mon 06:48:34 PM 40.3590 -123.2640 267° West 460 529 38,000  Level FlightAware ADS-B
Mon 06:49:21 PM 40.3540 -123.3890 267° West 459 528 38,000  Level FlightAware ADS-B
Mon 06:49:56 PM 40.3500 -123.4870 267° West 460 529 38,000  Level FlightAware ADS-B
Mon 06:50:30 PM 40.3470 -123.5810 268° West 460 529 38,000  Level FlightAware ADS-B
Mon 06:51:06 PM 40.3420 -123.6810 266° West 459 528 38,000  Level FlightAware ADS-B
Mon 06:51:51 PM 40.3370 -123.7970 267° West 462 532 38,000  Level FlightAware ADS-B
Mon 06:52:24 PM 40.3330 -123.9020 267° West 461 531 38,000  Level FlightAware ADS-B
Mon 06:53:05 PM 40.3270 -124.0070 266° West 462 532 38,000  Level FlightAware ADS-B
Mon 06:53:42 PM 40.3220 -124.1210 267° West 467 537 38,000  Level FlightAware ADS-B
Mon 06:54:22 PM 40.3170 -124.2170 266° West 467 537 38,000  Level FlightAware ADS-B
Mon 06:54:58 PM 40.3130 -124.3030 267° West 467 537 38,000  Level FlightAware ADS-B
Mon 06:55:42 PM 40.3070 -124.4380 267° West 461 531 38,000  Level FlightAware ADS-B
Mon 06:56:18 PM 40.3020 -124.5230 266° West 461 531 38,000  Level FlightAware ADS-B
Mon 06:56:54 PM 40.2980 -124.6080 266° West 461 531 38,000  Level FlightAware ADS-B
Mon 06:57:31 PM 40.2930 -124.6960 266° West 461 531 38,000  Level FlightAware ADS-B
Mon 06:58:07 PM 40.2890 -124.7820 267° West 461 531 38,000  Level FlightAware ADS-B
Mon 06:58:43 PM 40.2840 -124.8670 266° West 461 531 38,000  Level FlightAware ADS-B
Mon 06:59:19 PM 40.2790 -124.9520 266° West 461 531 38,000  Level FlightAware ADS-B
Mon 06:59:55 PM 40.2750 -125.0380 267° West 461 531 38,000  Level FlightAware ADS-B
Mon 07:00:29 PM 40.2710 -125.1180 266° West 461 531 38,000  Level FlightAware ADS-B
Mon 07:01:05 PM 40.2660 -125.2030 266° West 461 531 38,000  Level FlightAware ADS-B
Mon 07:01:42 PM 40.2610 -125.2910 266° West 461 531 38,000  Level FlightAware ADS-B
Mon 07:02:18 PM 40.2570 -125.3760 266° West 461 531 38,000  Level FlightAware ADS-B
Mon 07:02:52 PM 40.2520 -125.4570 265° West 461 531 38,000  Level FlightAware ADS-B
Mon 07:03:28 PM 40.2480 -125.5420 266° West 461 531 38,000  Level FlightAware ADS-B
Mon 07:04:04 PM 40.2430 -125.6280 266° West 461 531 38,000  Level FlightAware ADS-B
Mon 07:04:40 PM 40.2390 -125.7130 266° West 461 531 38,000  Level FlightAware ADS-B
Mon 07:05:49 PM 40.2142 -126.0847 266° West 447 514 38,000 -46 Level Seattle Center
Mon 07:06:50 PM 40.2036 -126.2450 265° West 446 513 37,900  Descending Seattle Center
Mon 07:07:51 PM 40.1928 -126.4075 265° West 447 514 38,000  Climbing Seattle Center
Mon 07:08:52 PM 40.1822 -126.5706 265° West 449 517 37,900  Descending Seattle Center
Mon 07:10:00 PM 40.1675 -126.7690 265° West  Level FlightAware Approximate
Mon 07:12:25 PM 40.1500 -127.0000 291° West 486 559 38,000  Level Oakland Oceanic (ODAPS)
Mon 07:17:00 PM 40.6367 -127.8404 300° West  Level Estimated
Mon 07:18:00 PM 40.4823 -128.1288 291° West 486 559 38,000  Level FlightAware Transoceanic
Mon 07:19:00 PM 40.5289 -128.2909 291° West 486 559 38,000  Level FlightAware Transoceanic
Mon 07:19:58 PM 40.5667 -128.4000 290° West 487 560 38,000  Level Oakland Oceanic (ODAPS)
Mon 07:20:00 PM 40.5753 -128.4533 291° West 486 559 38,000  Level FlightAware Transoceanic
Mon 07:21:00 PM 40.6214 -128.6159 290° West 486 559 38,000  Level FlightAware Transoceanic
Mon 07:22:00 PM 40.6673 -128.7787 290° West 486 559 38,000  Level FlightAware Transoceanic
Mon 07:23:00 PM 40.7130 -128.9418 290° West 486 559 38,000  Level FlightAware Transoceanic
Mon 07:24:00 PM 40.7584 -129.1051 290° West 486 559 38,000  Level FlightAware Transoceanic
Mon 07:25:00 PM 40.8036 -129.2686 290° West 486 559 38,000  Level FlightAware Transoceanic
Mon 07:26:00 PM 40.8439 -129.4016 290° West 487 560 38,000  Level FlightAware Transoceanic
Mon 07:27:00 PM 40.8893 -129.5694 290° West 487 560 38,000  Level FlightAware Transoceanic
Mon 07:28:00 PM 40.9344 -129.7374 290° West 487 560 38,000  Level FlightAware Transoceanic
Mon 07:29:00 PM 40.9793 -129.9056 289° West 487 560 38,000  Level FlightAware Transoceanic
Mon 07:30:00 PM 41.0239 -130.0740 289° West 487 560 38,000  Level FlightAware Transoceanic
Mon 07:31:00 PM 41.0683 -130.2426 289° West 487 560 38,000  Level FlightAware Transoceanic
Mon 07:32:00 PM 41.1125 -130.4115 289° West 487 560 38,000  Level FlightAware Transoceanic
Mon 07:33:00 PM 41.1563 -130.5807 289° West 487 560 38,000  Level FlightAware Transoceanic
Mon 07:33:42 PM 41.1833 -130.6667 285° West 463 533 38,000  Level Oakland Oceanic (ODAPS)
Mon 07:34:00 PM 41.2000 -130.7500 280° West 487 560 38,000  Level FlightAware Transoceanic
Mon 07:34:18 PM 41.2000 -130.7500 280° West 471 542 38,000  Level Oakland Oceanic (ODAPS)
Mon 07:35:00 PM 41.2223 -130.9254 280° West 487 560 38,000  Level FlightAware Transoceanic
Mon 07:36:00 PM 41.2444 -131.1010 279° West 487 560 38,000  Level FlightAware Transoceanic
Mon 07:37:00 PM 41.2662 -131.2766 279° West 487 560 38,000  Level FlightAware Transoceanic
Mon 07:38:00 PM 41.2877 -131.4524 279° West 487 560 38,000  Level FlightAware Transoceanic
Mon 07:39:00 PM 41.3089 -131.6283 279° West 487 560 38,000  Level FlightAware Transoceanic
Mon 07:40:00 PM 41.3275 -131.7844 279° West 471 542 38,000  Level FlightAware Transoceanic
Mon 07:41:00 PM 41.3479 -131.9571 279° West 471 542 38,000  Level FlightAware Transoceanic
Mon 07:42:00 PM 41.3680 -132.1300 279° West 471 542 38,000  Level FlightAware Transoceanic
Mon 07:43:00 PM 41.3879 -132.3030 279° West 471 542 38,000  Level FlightAware Transoceanic
Mon 07:44:00 PM 41.4074 -132.4761 279° West 471 542 38,000  Level FlightAware Transoceanic
Mon 07:45:00 PM 41.4268 -132.6493 278° West 471 542 38,000  Level FlightAware Transoceanic
Mon 07:46:00 PM 41.4458 -132.8226 278° West 471 542 38,000  Level FlightAware Transoceanic
Mon 07:47:00 PM 41.4646 -132.9960 278° West 471 542 38,000  Level FlightAware Transoceanic
Mon 07:48:00 PM 41.4832 -133.1695 278° West 471 542 38,000  Level FlightAware Transoceanic
Mon 07:48:50 PM 41.4667 -133.0000 278° West 458 527 38,000  Level Oakland Oceanic (ODAPS)
Mon 07:49:00 PM 41.5014 -133.3432 278° West 471 542 38,000  Level FlightAware Transoceanic
Mon 07:50:00 PM 41.5195 -133.5168 278° West 471 542 38,000  Level FlightAware Transoceanic
Mon 07:51:00 PM 41.5372 -133.6906 278° West 471 542 38,000  Level FlightAware Transoceanic
Mon 07:52:00 PM 41.5547 -133.8645 278° West 471 542 38,000  Level FlightAware Transoceanic
Mon 07:53:00 PM 41.5719 -134.0385 277° West 471 542 38,000  Level FlightAware Transoceanic
Mon 07:54:00 PM 41.5889 -134.2126 277° West 471 542 38,000  Level FlightAware Transoceanic
Mon 07:55:00 PM 41.6009 -134.3237 277° West 458 527 38,000  Level FlightAware Transoceanic
Mon 07:56:00 PM 41.6166 -134.4895 277° West 458 527 38,000  Level FlightAware Transoceanic
Mon 07:57:00 PM 41.6321 -134.6554 277° West 458 527 38,000  Level FlightAware Transoceanic
Mon 07:58:00 PM 41.6473 -134.8214 277° West 458 527 38,000  Level FlightAware Transoceanic
Mon 07:59:00 PM 41.6623 -134.9875 277° West 458 527 38,000  Level FlightAware Transoceanic
Mon 08:00:00 PM 41.6771 -135.1536 277° West 458 527 38,000  Level FlightAware Transoceanic
Mon 08:01:00 PM 41.6916 -135.3199 277° West 458 527 38,000  Level FlightAware Transoceanic
Mon 08:01:35 PM 41.6833 -135.3167 277° West 459 528 38,000  Level Oakland Oceanic (ODAPS)
Mon 08:02:00 PM 41.7059 -135.4862 277° West 458 527 38,000  Level FlightAware Transoceanic
Mon 08:03:00 PM 41.7199 -135.6525 276° West 458 527 38,000  Level FlightAware Transoceanic
Mon 08:04:00 PM 41.7337 -135.8190 276° West 458 527 38,000  Level FlightAware Transoceanic
Mon 08:05:00 PM 41.7472 -135.9855 276° West 458 527 38,000  Level FlightAware Transoceanic
Mon 08:06:00 PM 41.7606 -136.1521 276° West 458 527 38,000  Level FlightAware Transoceanic
Mon 08:07:00 PM 41.7672 -136.3161 276° West 459 528 38,000  Level FlightAware Transoceanic
Mon 08:08:00 PM 41.7803 -136.4829 276° West 459 528 38,000  Level FlightAware Transoceanic
Mon 08:09:00 PM 41.7932 -136.6498 276° West 459 528 38,000  Level FlightAware Transoceanic
Mon 08:10:00 PM 41.8059 -136.8168 276° West 459 528 38,000  Level FlightAware Transoceanic
Mon 08:11:00 PM 41.8182 -136.9838 276° West 459 528 38,000  Level FlightAware Transoceanic
Mon 08:12:00 PM 41.8304 -137.1509 276° West 459 528 38,000  Level FlightAware Transoceanic
Mon 08:13:00 PM 41.8423 -137.3181 275° West 459 528 38,000  Level FlightAware Transoceanic
Mon 08:14:00 PM 41.8540 -137.4853 275° West 459 528 38,000  Level FlightAware Transoceanic
Mon 08:15:00 PM 41.8655 -137.6525 275° West 459 528 38,000  Level FlightAware Transoceanic
Mon 08:15:28 PM 41.8667 -137.6833 275° West 471 542 38,000  Level Oakland Oceanic (ODAPS)
Mon 08:16:00 PM 41.8767 -137.8199 275° West 459 528 38,000  Level FlightAware Transoceanic
Mon 08:17:00 PM 41.8876 -137.9873 275° West 459 528 38,000  Level FlightAware Transoceanic
Mon 08:18:00 PM 41.8983 -138.1547 275° West 459 528 38,000  Level FlightAware Transoceanic
Mon 08:19:00 PM 41.9088 -138.3222 275° West 459 528 38,000  Level FlightAware Transoceanic
Mon 08:20:00 PM 41.9190 -138.4898 275° West 459 528 38,000  Level FlightAware Transoceanic
Mon 08:21:00 PM 41.9340 -138.7514 274° West 471 542 38,000  Level FlightAware Transoceanic
Mon 08:22:00 PM 41.9442 -138.9296 274° West 471 542 38,000  Level FlightAware Transoceanic
Mon 08:23:00 PM 41.9542 -139.1078 274° West 471 542 38,000  Level FlightAware Transoceanic
Mon 08:24:00 PM 41.9639 -139.2862 274° West 471 542 38,000  Level FlightAware Transoceanic
Mon 08:25:00 PM 41.9734 -139.4646 274° West 471 542 38,000  Level FlightAware Transoceanic
Mon 08:26:00 PM 41.9825 -139.6430 274° West 471 542 38,000  Level FlightAware Transoceanic
Mon 08:27:00 PM 41.9914 -139.8215 274° West 471 542 38,000  Level FlightAware Transoceanic
Mon 08:28:00 PM 42.0000 -140.0000 266° West 471 542 38,000 759 Level FlightAware Transoceanic
Mon 08:28:19 PM 42.0000 -140.0000 266° West 493 567 39,000  Climbing Oakland Oceanic (ODAPS)
Mon 08:29:00 PM 41.9898 -140.1809 266° West 471 542 38,000  Descending FlightAware Transoceanic
Mon 08:29:18 PM 41.9833 -140.1667 266° West 497 572 39,000  Climbing Oakland Oceanic (ODAPS)
Mon 08:30:00 PM 41.9794 -140.3618 265° West 471 542 38,000 -588 Descending FlightAware Transoceanic
Mon 08:31:00 PM 41.9686 -140.5426 265° West 471 542 38,000  Level FlightAware Transoceanic
Mon 08:32:00 PM 41.9576 -140.7233 265° West 471 542 38,000  Level FlightAware Transoceanic
Mon 08:33:00 PM 41.9463 -140.9040 265° West 471 542 38,000 500 Level FlightAware Transoceanic
Mon 08:34:00 PM 41.9334 -141.1043 265° West 493 567 39,000 500 Climbing FlightAware Transoceanic
Mon 08:35:00 PM 41.9158 -141.2725 265° West 497 572 39,000  Level FlightAware Transoceanic
Mon 08:36:00 PM 41.9035 -141.4566 265° West 497 572 39,000  Level FlightAware Transoceanic
Mon 08:37:00 PM 41.8909 -141.6405 265° West 497 572 39,000  Level FlightAware Transoceanic
Mon 08:38:00 PM 41.8781 -141.8245 265° West 497 572 39,000  Level FlightAware Transoceanic
Mon 08:39:00 PM 41.8649 -142.0083 264° West 497 572 39,000  Level FlightAware Transoceanic
Mon 08:40:00 PM 41.8515 -142.1921 264° West 497 572 39,000  Level FlightAware Transoceanic
Mon 08:41:00 PM 41.8377 -142.3758 264° West 497 572 39,000  Level FlightAware Transoceanic
Mon 08:42:00 PM 41.8237 -142.5594 264° West 497 572 39,000  Level FlightAware Transoceanic
Mon 08:43:00 PM 41.8093 -142.7429 264° West 497 572 39,000  Level FlightAware Transoceanic
Mon 08:43:05 PM 41.8167 -142.7167 264° West 502 578 39,000  Level Oakland Oceanic (ODAPS)
Mon 08:44:00 PM 41.7947 -142.9264 264° West 497 572 39,000  Level FlightAware Transoceanic
Mon 08:45:00 PM 41.7798 -143.1098 264° West 497 572 39,000  Level FlightAware Transoceanic
Mon 08:46:00 PM 41.7646 -143.2930 264° West 497 572 39,000  Level FlightAware Transoceanic
Mon 08:47:00 PM 41.7491 -143.4762 263° West 497 572 39,000  Level FlightAware Transoceanic
Mon 08:48:00 PM 41.7333 -143.6593 263° West 497 572 39,000  Level FlightAware Transoceanic
Mon 08:49:00 PM 41.7236 -143.8201 263° West 502 578 39,000  Level FlightAware Transoceanic
Mon 08:50:00 PM 41.7071 -144.0037 263° West 502 578 39,000  Level FlightAware Transoceanic
Mon 08:51:00 PM 41.6903 -144.1872 263° West 502 578 39,000  Level FlightAware Transoceanic
Mon 08:52:00 PM 41.6732 -144.3706 263° West 502 578 39,000  Level FlightAware Transoceanic
Mon 08:53:00 PM 41.6558 -144.5540 263° West 502 578 39,000  Level FlightAware Transoceanic
Mon 08:54:00 PM 41.6381 -144.7372 263° West 502 578 39,000  Level FlightAware Transoceanic
Mon 08:55:00 PM 41.6201 -144.9203 262° West 502 578 39,000  Level FlightAware Transoceanic
Mon 08:56:00 PM 41.6018 -145.1033 262° West 502 578 39,000  Level FlightAware Transoceanic
Mon 08:56:57 PM 41.5833 -145.2833 262° West 504 580 39,000  Level Oakland Oceanic (ODAPS)
Mon 08:57:00 PM 41.5833 -145.2861 262° West 502 578 39,000  Level FlightAware Transoceanic
Mon 08:58:00 PM 41.5644 -145.4689 262° West 502 578 39,000  Level FlightAware Transoceanic
Mon 08:59:00 PM 41.5452 -145.6516 262° West 502 578 39,000  Level FlightAware Transoceanic
Mon 09:00:00 PM 41.5258 -145.8342 262° West 502 578 39,000  Level FlightAware Transoceanic
Mon 09:01:00 PM 41.5061 -146.0167 262° West 502 578 39,000  Level FlightAware Transoceanic
Mon 09:02:00 PM 41.4861 -146.1990 262° West 502 578 39,000  Level FlightAware Transoceanic
Mon 09:03:00 PM 41.4609 -146.4228 261° West 504 580 39,000  Level FlightAware Transoceanic
Mon 09:04:00 PM 41.4395 -146.6123 261° West 504 580 39,000  Level FlightAware Transoceanic
Mon 09:05:00 PM 41.4177 -146.8017 261° West 504 580 39,000  Level FlightAware Transoceanic
Mon 09:06:00 PM 41.3956 -146.9909 261° West 504 580 39,000  Level FlightAware Transoceanic
Mon 09:07:00 PM 41.3731 -147.1800 261° West 504 580 39,000  Level FlightAware Transoceanic
Mon 09:08:00 PM 41.3504 -147.3690 261° West 504 580 39,000  Level FlightAware Transoceanic
Mon 09:09:00 PM 41.3274 -147.5578 261° West 504 580 39,000  Level FlightAware Transoceanic
Mon 09:10:00 PM 41.3040 -147.7466 261° West 504 580 39,000  Level FlightAware Transoceanic
Mon 09:11:00 PM 41.2804 -147.9351 260° West 504 580 39,000  Level FlightAware Transoceanic
Mon 09:12:00 PM 41.2564 -148.1236 260° West 504 580 39,000  Level FlightAware Transoceanic
Mon 09:13:00 PM 41.2321 -148.3118 260° West 504 580 39,000  Level FlightAware Transoceanic
Mon 09:13:53 PM 41.3000 -147.8167 260° West 495 570 39,000  Level Oakland Oceanic (ODAPS)
Mon 09:14:00 PM 41.2076 -148.5000 260° West 504 580 39,000  Level FlightAware Transoceanic
Mon 09:14:36 PM 41.2167 -148.4000 260° West 488 562 39,000  Level Oakland Oceanic (ODAPS)
Mon 09:15:00 PM 41.1827 -148.6880 260° West 504 580 39,000  Level FlightAware Transoceanic
Mon 09:16:00 PM 41.1575 -148.8759 260° West 504 580 39,000  Level FlightAware Transoceanic
Mon 09:17:00 PM 41.1320 -149.0636 260° West 504 580 39,000  Level FlightAware Transoceanic
Mon 09:18:00 PM 41.1062 -149.2512 260° West 504 580 39,000  Level FlightAware Transoceanic
Mon 09:19:00 PM 41.0801 -149.4386 259° West 504 580 39,000  Level FlightAware Transoceanic
Mon 09:20:00 PM 41.0789 -149.4561 259° West 495 570 39,000  Level FlightAware Transoceanic
Mon 09:21:00 PM 41.0501 -149.6454 260° West 488 562 39,000  Level FlightAware Transoceanic
Mon 09:22:00 PM 41.0252 -149.8228 259° West 488 562 39,000  Level FlightAware Transoceanic
Mon 09:23:00 PM 41.0000 -150.0000 266° West 488 562 39,000  Level FlightAware Transoceanic
Mon 09:23:10 PM 41.0000 -150.0000 266° West 493 567 39,000  Level Oakland Oceanic (ODAPS)
Mon 09:24:00 PM 40.9896 -150.1841 266° West 488 562 39,000  Level FlightAware Transoceanic
Mon 09:24:36 PM 40.9833 -150.2667 266° West 495 570 39,000  Level Oakland Oceanic (ODAPS)
Mon 09:25:00 PM 40.9789 -150.3682 266° West 488 562 39,000  Level FlightAware Transoceanic
Mon 09:26:00 PM 40.9679 -150.5522 265° West 488 562 39,000  Level FlightAware Transoceanic
Mon 09:27:00 PM 40.9566 -150.7362 265° West 488 562 39,000  Level FlightAware Transoceanic
Mon 09:28:00 PM 40.9450 -150.9201 265° West 488 562 39,000  Level FlightAware Transoceanic
Mon 09:29:00 PM 40.9345 -151.0842 265° West 493 567 39,000  Level FlightAware Transoceanic
Mon 09:30:00 PM 40.9161 -151.3410 265° West 495 570 39,000  Level FlightAware Transoceanic
Mon 09:31:00 PM 40.9039 -151.5198 265° West 495 570 39,000  Level FlightAware Transoceanic
Mon 09:32:00 PM 40.8915 -151.6985 265° West 495 570 39,000  Level FlightAware Transoceanic
Mon 09:33:00 PM 40.8788 -151.8772 265° West 495 570 39,000  Level FlightAware Transoceanic
Mon 09:34:00 PM 40.8657 -152.0559 264° West 495 570 39,000  Level FlightAware Transoceanic
Mon 09:35:00 PM 40.8525 -152.2344 264° West 495 570 39,000  Level FlightAware Transoceanic
Mon 09:36:00 PM 40.8389 -152.4129 264° West 495 570 39,000  Level FlightAware Transoceanic
Mon 09:37:00 PM 40.8251 -152.5913 264° West 495 570 39,000  Level FlightAware Transoceanic
Mon 09:38:00 PM 40.8110 -152.7696 264° West 495 570 39,000  Level FlightAware Transoceanic
Mon 09:38:35 PM 40.8167 -152.7333 264° West 495 570 39,000  Level Oakland Oceanic (ODAPS)
Mon 09:39:00 PM 40.7966 -152.9479 264° West 495 570 39,000  Level FlightAware Transoceanic
Mon 09:40:00 PM 40.7820 -153.1261 264° West 495 570 39,000  Level FlightAware Transoceanic
Mon 09:41:00 PM 40.7671 -153.3042 264° West 495 570 39,000  Level FlightAware Transoceanic
Mon 09:42:00 PM 40.7519 -153.4822 264° West 495 570 39,000  Level FlightAware Transoceanic
Mon 09:43:00 PM 40.7364 -153.6601 263° West 495 570 39,000  Level FlightAware Transoceanic
Mon 09:44:00 PM 40.7258 -153.8071 263° West 495 570 39,000  Level FlightAware Transoceanic
Mon 09:45:00 PM 40.7096 -153.9858 263° West 495 570 39,000  Level FlightAware Transoceanic
Mon 09:46:00 PM 40.6932 -154.1644 263° West 495 570 39,000  Level FlightAware Transoceanic
Mon 09:47:00 PM 40.6766 -154.3429 263° West 495 570 39,000  Level FlightAware Transoceanic
Mon 09:48:00 PM 40.6596 -154.5213 263° West 495 570 39,000  Level FlightAware Transoceanic
Mon 09:49:00 PM 40.6424 -154.6996 263° West 495 570 39,000  Level FlightAware Transoceanic
Mon 09:50:00 PM 40.6249 -154.8778 263° West 495 570 39,000  Level FlightAware Transoceanic
Mon 09:51:00 PM 40.6072 -155.0559 262° West 495 570 39,000  Level FlightAware Transoceanic
Mon 09:52:00 PM 40.5891 -155.2339 262° West 495 570 39,000  Level FlightAware Transoceanic
Mon 09:52:19 PM 40.5833 -155.2333 262° West 500 575 39,000  Level Oakland Oceanic (ODAPS)
Mon 09:53:00 PM 40.5708 -155.4119 262° West 495 570 39,000  Level FlightAware Transoceanic
Mon 09:54:00 PM 40.5522 -155.5897 262° West 495 570 39,000  Level FlightAware Transoceanic
Mon 09:55:00 PM 40.5334 -155.7675 262° West 495 570 39,000  Level FlightAware Transoceanic
Mon 09:56:00 PM 40.5143 -155.9451 262° West 495 570 39,000  Level FlightAware Transoceanic
Mon 09:57:00 PM 40.4949 -156.1226 262° West 495 570 39,000  Level FlightAware Transoceanic
Mon 09:58:00 PM 40.4707 -156.2995 262° West 500 575 39,000  Level FlightAware Transoceanic
Mon 09:59:00 PM 40.4509 -156.4769 262° West 500 575 39,000  Level FlightAware Transoceanic
Mon 10:00:00 PM 40.4310 -156.6541 262° West 500 575 39,000  Level FlightAware Transoceanic
Mon 10:01:00 PM 40.4107 -156.8312 261° West 500 575 39,000  Level FlightAware Transoceanic
Mon 10:02:00 PM 40.3901 -157.0082 261° West 500 575 39,000  Level FlightAware Transoceanic
Mon 10:03:00 PM 40.3693 -157.1852 261° West 500 575 39,000  Level FlightAware Transoceanic
Mon 10:04:00 PM 40.3483 -157.3620 261° West 500 575 39,000  Level FlightAware Transoceanic
Mon 10:05:00 PM 40.3269 -157.5387 261° West 500 575 39,000  Level FlightAware Transoceanic
Mon 10:06:00 PM 40.3053 -157.7152 261° West 500 575 39,000  Level FlightAware Transoceanic
Mon 10:06:37 PM 40.3000 -157.7167 261° West 499 574 39,000  Level Oakland Oceanic (ODAPS)
Mon 10:07:00 PM 40.2834 -157.8917 261° West 500 575 39,000  Level FlightAware Transoceanic
Mon 10:08:00 PM 40.2612 -158.0681 261° West 500 575 39,000  Level FlightAware Transoceanic
Mon 10:09:00 PM 40.2388 -158.2443 260° West 500 575 39,000  Level FlightAware Transoceanic
Mon 10:10:00 PM 40.2161 -158.4204 260° West 500 575 39,000  Level FlightAware Transoceanic
Mon 10:11:00 PM 40.1932 -158.5964 260° West 500 575 39,000  Level FlightAware Transoceanic
Mon 10:12:00 PM 40.1700 -158.7723 260° West 500 575 39,000  Level FlightAware Transoceanic
Mon 10:13:00 PM 40.1440 -158.9487 260° West 499 574 39,000  Level FlightAware Transoceanic
Mon 10:14:00 PM 40.1207 -159.1242 260° West 499 574 39,000  Level FlightAware Transoceanic
Mon 10:15:00 PM 40.0971 -159.2996 260° West 499 574 39,000  Level FlightAware Transoceanic
Mon 10:16:00 PM 40.0732 -159.4749 260° West 499 574 39,000  Level FlightAware Transoceanic
Mon 10:17:00 PM 40.0491 -159.6501 260° West 499 574 39,000  Level FlightAware Transoceanic
Mon 10:18:00 PM 40.0247 -159.8251 260° West 499 574 39,000  Level FlightAware Transoceanic
Mon 10:19:00 PM 40.0000 -160.0000 259° West 499 574 39,000  Level FlightAware Transoceanic
Mon 10:20:00 PM 39.9729 -160.1770 259° West 499 574 39,000  Level FlightAware Transoceanic
Mon 10:20:01 PM 40.0000 -160.0000 259° West 495 570 39,000  Level Oakland Oceanic (ODAPS)
Mon 10:21:00 PM 39.9455 -160.3538 259° West 499 574 39,000  Level FlightAware Transoceanic
Mon 10:22:00 PM 39.9179 -160.5305 258° West 499 574 39,000  Level FlightAware Transoceanic
Mon 10:23:00 PM 39.8900 -160.7070 258° West 499 574 39,000  Level FlightAware Transoceanic
Mon 10:24:00 PM 39.8618 -160.8834 258° West 499 574 39,000  Level FlightAware Transoceanic
Mon 10:25:00 PM 39.8334 -161.0597 258° West 499 574 39,000  Level FlightAware Transoceanic
Mon 10:26:00 PM 39.8047 -161.2358 258° West 495 570 39,000  Level FlightAware Transoceanic
Mon 10:27:00 PM 39.7757 -161.4117 258° West 495 570 39,000  Level FlightAware Transoceanic
Mon 10:28:00 PM 39.7465 -161.5875 258° West 495 570 39,000  Level FlightAware Transoceanic
Mon 10:29:00 PM 39.7170 -161.7632 258° West 495 570 39,000  Level FlightAware Transoceanic
Mon 10:30:00 PM 39.6872 -161.9387 258° West 495 570 39,000  Level FlightAware Transoceanic
Mon 10:31:00 PM 39.6572 -162.1140 257° West 495 570 39,000  Level FlightAware Transoceanic
Mon 10:32:00 PM 39.6269 -162.2892 257° West 495 570 39,000  Level FlightAware Transoceanic
Mon 10:33:00 PM 39.5964 -162.4643 257° West 495 570 39,000  Level FlightAware Transoceanic
Mon 10:34:00 PM 39.5655 -162.6392 257° West 495 570 39,000  Level FlightAware Transoceanic
Mon 10:35:00 PM 39.5345 -162.8139 257° West 495 570 39,000  Level FlightAware Transoceanic
Mon 10:35:54 PM 39.5833 -162.5667 257° West 487 560 39,000  Level Oakland Oceanic (ODAPS)
Mon 10:36:00 PM 39.5031 -162.9885 257° West 495 570 39,000  Level FlightAware Transoceanic
Mon 10:37:00 PM 39.4715 -163.1629 257° West 495 570 39,000  Level FlightAware Transoceanic
Mon 10:38:00 PM 39.4397 -163.3372 257° West 495 570 39,000  Level FlightAware Transoceanic
Mon 10:39:00 PM 39.4075 -163.5113 257° West 495 570 39,000  Level FlightAware Transoceanic
Mon 10:40:00 PM 39.3752 -163.6852 256° West 495 570 39,000  Level FlightAware Transoceanic
Mon 10:41:00 PM 39.3425 -163.8590 256° West 495 570 39,000  Level FlightAware Transoceanic
Mon 10:42:00 PM 39.3309 -163.9422 256° West 487 560 39,000  Level FlightAware Transoceanic
Mon 10:43:00 PM 39.2982 -164.1135 256° West 487 560 39,000  Level FlightAware Transoceanic
Mon 10:44:00 PM 39.2652 -164.2846 256° West 487 560 39,000  Level FlightAware Transoceanic
Mon 10:45:00 PM 39.2321 -164.4555 256° West 487 560 39,000  Level FlightAware Transoceanic
Mon 10:46:00 PM 39.1986 -164.6262 256° West 487 560 39,000  Level FlightAware Transoceanic
Mon 10:47:00 PM 39.1649 -164.7968 256° West 487 560 39,000  Level FlightAware Transoceanic
Mon 10:48:00 PM 39.1310 -164.9673 256° West 487 560 39,000  Level FlightAware Transoceanic
Mon 10:48:18 PM 39.1333 -164.9500 256° West 493 567 39,000  Level Oakland Oceanic (ODAPS)
Mon 10:49:00 PM 39.0968 -165.1375 255° West 487 560 39,000  Level FlightAware Transoceanic
Mon 10:49:27 PM 39.1333 -164.9500 256° West 493 567 39,000  Level Oakland Oceanic (ODAPS)
Mon 10:50:00 PM 39.0624 -165.3076 255° West 487 560 39,000  Level FlightAware Transoceanic
Mon 10:51:00 PM 39.0277 -165.4775 255° West 487 560 39,000  Level FlightAware Transoceanic
Mon 10:52:00 PM 38.9927 -165.6473 255° West 487 560 39,000  Level FlightAware Transoceanic
Mon 10:53:00 PM 38.9576 -165.8169 255° West 487 560 39,000  Level FlightAware Transoceanic
Mon 10:54:00 PM 38.9241 -165.9726 255° West 493 567 39,000  Level FlightAware Transoceanic
Mon 10:55:00 PM 38.8884 -166.1424 255° West 493 567 39,000  Level FlightAware Transoceanic
Mon 10:56:00 PM 38.8525 -166.3121 255° West 493 567 39,000  Level FlightAware Transoceanic
Mon 10:57:00 PM 38.8162 -166.4816 255° West 493 567 39,000  Level FlightAware Transoceanic
Mon 10:58:00 PM 38.7798 -166.6509 255° West 493 567 39,000  Level FlightAware Transoceanic
Mon 10:59:00 PM 38.7431 -166.8201 254° West 493 567 39,000  Level FlightAware Transoceanic
Mon 11:00:00 PM 38.7061 -166.9890 254° West 493 567 39,000  Level FlightAware Transoceanic
Mon 11:01:00 PM 38.6689 -167.1579 254° West 493 567 39,000  Level FlightAware Transoceanic
Mon 11:01:52 PM 38.6333 -167.2833 254° West 487 560 39,000  Level Oakland Oceanic (ODAPS)
Mon 11:02:00 PM 38.6315 -167.3265 254° West 493 567 39,000  Level FlightAware Transoceanic
Mon 11:03:00 PM 38.5938 -167.4949 254° West 493 567 39,000  Level FlightAware Transoceanic
Mon 11:04:00 PM 38.5559 -167.6632 254° West 493 567 39,000  Level FlightAware Transoceanic
Mon 11:05:00 PM 38.5177 -167.8313 254° West 493 567 39,000  Level FlightAware Transoceanic
Mon 11:06:00 PM 38.4793 -167.9992 254° West 493 567 39,000  Level FlightAware Transoceanic
Mon 11:07:00 PM 38.4407 -168.1669 254° West 493 567 39,000  Level FlightAware Transoceanic
Mon 11:08:00 PM 38.3801 -168.4077 254° West 487 560 39,000  Level FlightAware Transoceanic
Mon 11:09:00 PM 38.3431 -168.5677 253° West 487 560 39,000  Level FlightAware Transoceanic
Mon 11:10:00 PM 38.3058 -168.7275 253° West 487 560 39,000  Level FlightAware Transoceanic
Mon 11:11:00 PM 38.2684 -168.8871 253° West 487 560 39,000  Level FlightAware Transoceanic
Mon 11:12:00 PM 38.2307 -169.0466 253° West 487 560 39,000  Level FlightAware Transoceanic
Mon 11:13:00 PM 38.1928 -169.2059 253° West 487 560 39,000  Level FlightAware Transoceanic
Mon 11:14:00 PM 38.1546 -169.3651 253° West 487 560 39,000  Level FlightAware Transoceanic
Mon 11:15:00 PM 38.1163 -169.5241 253° West 487 560 39,000  Level FlightAware Transoceanic
Mon 11:15:54 PM 38.1167 -169.5333 253° West 475 547 39,000  Level Oakland Oceanic (ODAPS)
Mon 11:16:00 PM 38.0778 -169.6829 253° West 487 560 39,000  Level FlightAware Transoceanic
Mon 11:17:00 PM 38.0390 -169.8415 253° West 487 560 39,000  Level FlightAware Transoceanic
Mon 11:17:05 PM 38.1167 -169.5333 253° West 475 547 39,000  Level Oakland Oceanic (ODAPS)
Mon 11:18:00 PM 38.0000 -170.0000 266° West 487 560 39,000  Level FlightAware Transoceanic
Mon 11:19:00 PM 37.9902 -170.1714 266° West 487 560 39,000 652 Level FlightAware Transoceanic
Mon 11:19:32 PM 37.9833 -170.1667 266° West 487 560 40,000  Climbing Oakland Oceanic (ODAPS)
Mon 11:20:00 PM 37.9800 -170.3428 266° West 487 560 39,000 -682 Descending FlightAware Transoceanic
Mon 11:21:00 PM 37.9697 -170.5142 266° West 487 560 39,000  Level FlightAware Transoceanic
Mon 11:22:00 PM 37.9591 -170.6855 265° West 475 547 39,000  Level FlightAware Transoceanic
Mon 11:23:00 PM 37.9483 -170.8567 265° West 475 547 39,000  Level FlightAware Transoceanic
Mon 11:24:00 PM 37.9372 -171.0279 265° West 475 547 39,000 500 Level FlightAware Transoceanic
Mon 11:25:00 PM 37.9198 -171.1947 265° West 487 560 40,000 500 Climbing FlightAware Transoceanic
Mon 11:26:00 PM 37.9083 -171.3658 265° West 487 560 40,000  Level FlightAware Transoceanic
Mon 11:27:00 PM 37.8966 -171.5370 265° West 487 560 40,000  Level FlightAware Transoceanic
Mon 11:28:00 PM 37.8846 -171.7080 265° West 487 560 40,000  Level FlightAware Transoceanic
Mon 11:29:00 PM 37.8724 -171.8790 265° West 487 560 40,000  Level FlightAware Transoceanic
Mon 11:29:23 PM 37.8833 -171.7833 265° West 474 545 40,000  Level Oakland Oceanic (ODAPS)
Mon 11:30:00 PM 37.8600 -172.0499 265° West 487 560 40,000  Level FlightAware Transoceanic
Mon 11:31:00 PM 37.8473 -172.2208 265° West 487 560 40,000  Level FlightAware Transoceanic
Mon 11:32:00 PM 37.8343 -172.3916 264° West 487 560 40,000  Level FlightAware Transoceanic
Mon 11:33:00 PM 37.8211 -172.5624 264° West 487 560 40,000  Level FlightAware Transoceanic
Mon 11:34:00 PM 37.8077 -172.7331 264° West 487 560 40,000  Level FlightAware Transoceanic
Mon 11:35:00 PM 37.8060 -172.7991 264° West 474 545 40,000  Level FlightAware Transoceanic
Mon 11:36:00 PM 37.7922 -172.9682 264° West 474 545 40,000  Level FlightAware Transoceanic
Mon 11:37:00 PM 37.7782 -173.1372 264° West 474 545 40,000  Level FlightAware Transoceanic
Mon 11:38:00 PM 37.7640 -173.3062 264° West 474 545 40,000  Level FlightAware Transoceanic
Mon 11:39:00 PM 37.7495 -173.4751 264° West 474 545 40,000  Level FlightAware Transoceanic
Mon 11:40:00 PM 37.7348 -173.6439 264° West 474 545 40,000  Level FlightAware Transoceanic
Mon 11:41:00 PM 37.7199 -173.8126 264° West 474 545 40,000  Level FlightAware Transoceanic
Mon 11:42:00 PM 37.7047 -173.9813 263° West 474 545 40,000  Level FlightAware Transoceanic
Mon 11:43:00 PM 37.6893 -174.1499 263° West 474 545 40,000  Level FlightAware Transoceanic
Mon 11:43:15 PM 37.7000 -174.0833 263° West 472 543 40,000  Level Oakland Oceanic (ODAPS)
Mon 11:44:00 PM 37.6736 -174.3185 263° West 474 545 40,000  Level FlightAware Transoceanic
Mon 11:45:00 PM 37.6577 -174.4870 263° West 474 545 40,000  Level FlightAware Transoceanic
Mon 11:46:00 PM 37.6416 -174.6554 263° West 474 545 40,000  Level FlightAware Transoceanic
Mon 11:47:00 PM 37.6252 -174.8237 263° West 474 545 40,000  Level FlightAware Transoceanic
Mon 11:48:00 PM 37.6086 -174.9919 263° West 474 545 40,000  Level FlightAware Transoceanic
Mon 11:49:00 PM 37.6010 -175.1051 263° West 472 543 40,000  Level FlightAware Transoceanic
Mon 11:50:00 PM 37.5837 -175.2752 263° West 472 543 40,000  Level FlightAware Transoceanic
Mon 11:51:00 PM 37.5661 -175.4451 263° West 472 543 40,000  Level FlightAware Transoceanic
Mon 11:52:00 PM 37.5483 -175.6150 262° West 472 543 40,000  Level FlightAware Transoceanic
Mon 11:53:00 PM 37.5302 -175.7848 262° West 472 543 40,000  Level FlightAware Transoceanic
Mon 11:54:00 PM 37.5119 -175.9545 262° West 472 543 40,000  Level FlightAware Transoceanic
Mon 11:55:00 PM 37.4933 -176.1241 262° West 472 543 40,000  Level FlightAware Transoceanic
Mon 11:56:00 PM 37.4745 -176.2936 262° West 472 543 40,000  Level FlightAware Transoceanic
Mon 11:57:00 PM 37.4554 -176.4631 262° West 472 543 40,000  Level FlightAware Transoceanic
Mon 11:57:18 PM 37.4667 -176.3500 262° West 476 548 40,000  Level Oakland Oceanic (ODAPS)
Mon 11:58:00 PM 37.4361 -176.6324 262° West 472 543 40,000  Level FlightAware Transoceanic
Mon 11:59:00 PM 37.4166 -176.8017 262° West 472 543 40,000  Level FlightAware Transoceanic
Tue 12:00:00 AM 37.3968 -176.9709 262° West 472 543 40,000  Level FlightAware Transoceanic
Tue 12:01:00 AM 37.3768 -177.1400 261° West 472 543 40,000  Level FlightAware Transoceanic
Tue 12:02:00 AM 37.3566 -177.3090 261° West 472 543 40,000  Level FlightAware Transoceanic
Tue 12:03:00 AM 37.3505 -177.3499 261° West 476 548 40,000  Level FlightAware Transoceanic
Tue 12:04:00 AM 37.3304 -177.5162 261° West 476 548 40,000  Level FlightAware Transoceanic
Tue 12:05:00 AM 37.3100 -177.6824 261° West 476 548 40,000  Level FlightAware Transoceanic
Tue 12:06:00 AM 37.2893 -177.8486 261° West 476 548 40,000  Level FlightAware Transoceanic
Tue 12:07:00 AM 37.2684 -178.0147 261° West 476 548 40,000  Level FlightAware Transoceanic
Tue 12:08:00 AM 37.2473 -178.1806 261° West 476 548 40,000  Level FlightAware Transoceanic
Tue 12:09:00 AM 37.2260 -178.3465 261° West 476 548 40,000  Level FlightAware Transoceanic
Tue 12:10:00 AM 37.2044 -178.5123 261° West 476 548 40,000  Level FlightAware Transoceanic
Tue 12:11:00 AM 37.1826 -178.6780 261° West 476 548 40,000  Level FlightAware Transoceanic
Tue 12:11:05 AM 37.1833 -178.6333 261° West 487 560 40,000  Level Oakland Oceanic (ODAPS)
Tue 12:12:00 AM 37.1606 -178.8436 260° West 476 548 40,000  Level FlightAware Transoceanic
Tue 12:13:00 AM 37.1384 -179.0091 260° West 476 548 40,000  Level FlightAware Transoceanic
Tue 12:14:00 AM 37.1159 -179.1745 260° West 476 548 40,000  Level FlightAware Transoceanic
Tue 12:15:00 AM 37.0932 -179.3398 260° West 476 548 40,000  Level FlightAware Transoceanic
Tue 12:16:00 AM 37.0702 -179.5050 260° West 476 548 40,000  Level FlightAware Transoceanic
Tue 12:17:00 AM 37.0473 -179.6590 260° West 487 560 40,000  Level FlightAware Transoceanic
Tue 12:18:00 AM 37.0238 -179.8295 260° West 487 560 40,000  Level FlightAware Transoceanic
Tue 12:19:00 AM 37.0000 -180.0000 266° West 487 560 40,000  Level FlightAware Transoceanic
Tue 12:19:19 AM 37.0000 180.0000 266° West 484 557 40,000  Level Oakland Oceanic (ODAPS)
Tue 12:20:00 AM 36.9901 179.8286 266° West 487 560 40,000  Level FlightAware Transoceanic
Tue 12:21:00 AM 36.9799 179.6573 266° West 487 560 40,000  Level FlightAware Transoceanic
Tue 12:22:00 AM 36.9695 179.4860 266° West 487 560 40,000  Level FlightAware Transoceanic
Tue 12:23:00 AM 36.9588 179.3148 265° West 487 560 40,000  Level FlightAware Transoceanic
Tue 12:24:00 AM 36.9479 179.1436 265° West 487 560 40,000  Level FlightAware Transoceanic
Tue 12:24:58 AM 36.9500 179.0500 265° West 486 559 40,000  Level Oakland Oceanic (ODAPS)
Tue 12:25:00 AM 36.9379 178.9896 265° West 484 557 40,000  Level FlightAware Transoceanic
Tue 12:26:00 AM 36.9267 178.8213 265° West 484 557 40,000  Level FlightAware Transoceanic
Tue 12:27:00 AM 36.9153 178.6532 265° West 484 557 40,000  Level FlightAware Transoceanic
Tue 12:28:00 AM 36.9037 178.4850 265° West 484 557 40,000  Level FlightAware Transoceanic
Tue 12:29:00 AM 36.8918 178.3169 265° West 484 557 40,000  Level FlightAware Transoceanic
Tue 12:30:00 AM 36.8796 178.1489 265° West 484 557 40,000  Level FlightAware Transoceanic
Tue 12:31:00 AM 36.8785 178.0344 265° West 486 559 40,000  Level FlightAware Transoceanic
Tue 12:32:00 AM 36.8657 177.8654 265° West 486 559 40,000  Level FlightAware Transoceanic
Tue 12:33:00 AM 36.8527 177.6963 264° West 486 559 40,000  Level FlightAware Transoceanic
Tue 12:34:00 AM 36.8395 177.5274 264° West 486 559 40,000  Level FlightAware Transoceanic
Tue 12:35:00 AM 36.8260 177.3585 264° West 486 559 40,000  Level FlightAware Transoceanic
Tue 12:36:00 AM 36.8123 177.1897 264° West 486 559 40,000  Level FlightAware Transoceanic
Tue 12:37:00 AM 36.7983 177.0209 264° West 486 559 40,000  Level FlightAware Transoceanic
Tue 12:38:00 AM 36.7841 176.8522 264° West 486 559 40,000  Level FlightAware Transoceanic
Tue 12:38:48 AM 36.7667 176.7333 264° West 486 559 40,000  Level Oakland Oceanic (ODAPS)
Tue 12:39:00 AM 36.7697 176.6835 264° West 486 559 40,000  Level FlightAware Transoceanic
Tue 12:40:00 AM 36.7550 176.5149 264° West 486 559 40,000  Level FlightAware Transoceanic
Tue 12:41:00 AM 36.7401 176.3464 264° West 486 559 40,000  Level FlightAware Transoceanic
Tue 12:42:00 AM 36.7250 176.1779 264° West 486 559 40,000  Level FlightAware Transoceanic
Tue 12:43:00 AM 36.7096 176.0096 263° West 486 559 40,000  Level FlightAware Transoceanic
Tue 12:44:00 AM 36.6940 175.8412 263° West 486 559 40,000  Level FlightAware Transoceanic
Tue 12:45:00 AM 36.6759 175.7153 263° West 486 559 40,000  Level FlightAware Transoceanic
Tue 12:46:00 AM 36.6599 175.5459 263° West 486 559 40,000  Level FlightAware Transoceanic
Tue 12:47:00 AM 36.6437 175.3765 263° West 486 559 40,000  Level FlightAware Transoceanic
Tue 12:48:00 AM 36.6273 175.2072 263° West 486 559 40,000  Level FlightAware Transoceanic
Tue 12:49:00 AM 36.6106 175.0380 263° West 486 559 40,000  Level FlightAware Transoceanic
Tue 12:50:00 AM 36.5937 174.8689 263° West 486 559 40,000  Level FlightAware Transoceanic
Tue 12:51:00 AM 36.5765 174.6998 263° West 486 559 40,000  Level FlightAware Transoceanic
Tue 12:52:00 AM 36.5591 174.5308 263° West 486 559 40,000  Level FlightAware Transoceanic
Tue 12:52:40 AM 36.5500 174.4167 263° West 490 564 40,000  Level Oakland Oceanic (ODAPS)
Tue 12:53:00 AM 36.5415 174.3619 263° West 486 559 40,000  Level FlightAware Transoceanic
Tue 12:54:00 AM 36.5236 174.1931 262° West 486 559 40,000  Level FlightAware Transoceanic
Tue 12:55:00 AM 36.5055 174.0243 262° West 486 559 40,000  Level FlightAware Transoceanic
Tue 12:56:00 AM 36.4871 173.8556 262° West 486 559 40,000  Level FlightAware Transoceanic
Tue 12:57:00 AM 36.4685 173.6870 262° West 486 559 40,000  Level FlightAware Transoceanic
Tue 12:58:00 AM 36.4497 173.5185 262° West 486 559 40,000  Level FlightAware Transoceanic
Tue 12:59:00 AM 36.4230 173.2657 262° West 490 564 40,000  Level FlightAware Transoceanic
Tue 01:00:00 AM 36.4040 173.1017 262° West 490 564 40,000  Level FlightAware Transoceanic
Tue 01:01:00 AM 36.3848 172.9376 262° West 490 564 40,000  Level FlightAware Transoceanic
Tue 01:02:00 AM 36.3653 172.7737 262° West 490 564 40,000  Level FlightAware Transoceanic
Tue 01:03:00 AM 36.3456 172.6098 261° West 490 564 40,000  Level FlightAware Transoceanic
Tue 01:04:00 AM 36.3256 172.4460 261° West 490 564 40,000  Level FlightAware Transoceanic
Tue 01:05:00 AM 36.3055 172.2824 261° West 490 564 40,000  Level FlightAware Transoceanic
Tue 01:06:00 AM 36.2851 172.1188 261° West 490 564 40,000  Level FlightAware Transoceanic
Tue 01:06:36 AM 36.2833 172.1167 261° West 488 562 40,000  Level Oakland Oceanic (ODAPS)
Tue 01:07:00 AM 36.2645 171.9552 261° West 490 564 40,000  Level FlightAware Transoceanic
Tue 01:08:00 AM 36.2437 171.7918 261° West 490 564 40,000  Level FlightAware Transoceanic
Tue 01:09:00 AM 36.2226 171.6285 261° West 490 564 40,000  Level FlightAware Transoceanic
Tue 01:10:00 AM 36.2014 171.4652 261° West 490 564 40,000  Level FlightAware Transoceanic
Tue 01:11:00 AM 36.1799 171.3020 261° West 490 564 40,000  Level FlightAware Transoceanic
Tue 01:12:00 AM 36.1581 171.1390 261° West 490 564 40,000  Level FlightAware Transoceanic
Tue 01:13:00 AM 36.1354 170.9750 261° West 488 562 40,000  Level FlightAware Transoceanic
Tue 01:14:00 AM 36.1134 170.8123 260° West 488 562 40,000  Level FlightAware Transoceanic
Tue 01:15:00 AM 36.0911 170.6496 260° West 488 562 40,000  Level FlightAware Transoceanic
Tue 01:16:00 AM 36.0687 170.4871 260° West 488 562 40,000  Level FlightAware Transoceanic
Tue 01:17:00 AM 36.0460 170.3246 260° West 488 562 40,000  Level FlightAware Transoceanic
Tue 01:18:00 AM 36.0231 170.1623 260° West 488 562 40,000  Level FlightAware Transoceanic
Tue 01:19:00 AM 36.0000 170.0000 266° West 488 562 40,000  Level FlightAware Transoceanic
Tue 01:19:23 AM 36.0000 170.0000 266° West 490 564 40,000  Level Oakland Oceanic (ODAPS)
Tue 01:20:00 AM 35.9902 169.8315 266° West 488 562 40,000  Level FlightAware Transoceanic
Tue 01:20:20 AM 35.9833 169.8167 266° West 488 562 40,000  Level Oakland Oceanic (ODAPS)
Tue 01:21:00 AM 35.9801 169.6631 266° West 488 562 40,000  Level FlightAware Transoceanic
Tue 01:22:00 AM 35.9698 169.4948 266° West 488 562 40,000  Level FlightAware Transoceanic
Tue 01:23:00 AM 35.9593 169.3264 266° West 488 562 40,000  Level FlightAware Transoceanic
Tue 01:24:00 AM 35.9485 169.1582 265° West 488 562 40,000  Level FlightAware Transoceanic
Tue 01:25:00 AM 35.9375 168.9899 265° West 490 564 40,000  Level FlightAware Transoceanic
Tue 01:26:00 AM 35.9211 168.8253 265° West 488 562 40,000  Level FlightAware Transoceanic
Tue 01:27:00 AM 35.9100 168.6602 265° West 488 562 40,000  Level FlightAware Transoceanic
Tue 01:28:00 AM 35.8986 168.4952 265° West 488 562 40,000  Level FlightAware Transoceanic
Tue 01:29:00 AM 35.8870 168.3302 265° West 488 562 40,000  Level FlightAware Transoceanic
Tue 01:30:00 AM 35.8751 168.1653 265° West 488 562 40,000  Level FlightAware Transoceanic
Tue 01:31:00 AM 35.8630 168.0004 265° West 488 562 40,000  Level FlightAware Transoceanic
Tue 01:32:00 AM 35.8507 167.8355 265° West 488 562 40,000  Level FlightAware Transoceanic
Tue 01:33:00 AM 35.8382 167.6707 265° West 488 562 40,000  Level FlightAware Transoceanic
Tue 01:34:00 AM 35.8255 167.5060 265° West 488 562 40,000  Level FlightAware Transoceanic
Tue 01:34:17 AM 35.8333 167.5333 264° West 485 558 40,000  Level Oakland Oceanic (ODAPS)
Tue 01:35:00 AM 35.8125 167.3414 264° West 488 562 40,000  Level FlightAware Transoceanic
Tue 01:36:00 AM 35.7993 167.1767 264° West 488 562 40,000  Level FlightAware Transoceanic
Tue 01:37:00 AM 35.7859 167.0122 264° West 488 562 40,000  Level FlightAware Transoceanic
Tue 01:38:00 AM 35.7723 166.8477 264° West 488 562 40,000  Level FlightAware Transoceanic
Tue 01:39:00 AM 35.7584 166.6832 264° West 488 562 40,000  Level FlightAware Transoceanic
Tue 01:40:00 AM 35.7514 166.5424 264° West 485 558 40,000  Level FlightAware Transoceanic
Tue 01:41:00 AM 35.7369 166.3775 264° West 485 558 40,000  Level FlightAware Transoceanic
Tue 01:42:00 AM 35.7222 166.2126 264° West 485 558 40,000  Level FlightAware Transoceanic
Tue 01:43:00 AM 35.7073 166.0478 264° West 485 558 40,000  Level FlightAware Transoceanic
Tue 01:44:00 AM 35.6922 165.8830 264° West 485 558 40,000  Level FlightAware Transoceanic
Tue 01:45:00 AM 35.6768 165.7183 263° West 485 558 40,000  Level FlightAware Transoceanic
Tue 01:46:00 AM 35.6613 165.5537 263° West 485 558 40,000  Level FlightAware Transoceanic
Tue 01:47:00 AM 35.6455 165.3891 263° West 485 558 40,000  Level FlightAware Transoceanic
Tue 01:48:00 AM 35.6295 165.2246 263° West 485 558 40,000  Level FlightAware Transoceanic
Tue 01:48:04 AM 35.6333 165.2667 263° West 486 559 40,000  Level Oakland Oceanic (ODAPS)
Tue 01:49:00 AM 35.6132 165.0602 263° West 485 558 40,000  Level FlightAware Transoceanic
Tue 01:50:00 AM 35.5967 164.8958 263° West 485 558 40,000  Level FlightAware Transoceanic
Tue 01:51:00 AM 35.5800 164.7315 263° West 485 558 40,000  Level FlightAware Transoceanic
Tue 01:52:00 AM 35.5631 164.5673 263° West 485 558 40,000  Level FlightAware Transoceanic
Tue 01:53:00 AM 35.5460 164.4031 263° West 485 558 40,000  Level FlightAware Transoceanic
Tue 01:54:00 AM 35.5321 164.2731 263° West 486 559 40,000  Level FlightAware Transoceanic
Tue 01:55:00 AM 35.5144 164.1077 262° West 486 559 40,000  Level FlightAware Transoceanic
Tue 01:56:00 AM 35.4965 163.9425 262° West 486 559 40,000  Level FlightAware Transoceanic
Tue 01:57:00 AM 35.4784 163.7773 262° West 486 559 40,000  Level FlightAware Transoceanic
Tue 01:58:00 AM 35.4600 163.6122 262° West 486 559 40,000  Level FlightAware Transoceanic
Tue 01:59:00 AM 35.4414 163.4471 262° West 486 559 40,000  Level FlightAware Transoceanic
Tue 02:00:00 AM 35.4226 163.2821 262° West 486 559 40,000  Level FlightAware Transoceanic
Tue 02:01:00 AM 35.4036 163.1172 262° West 486 559 40,000  Level FlightAware Transoceanic
Tue 02:02:00 AM 35.3844 162.9524 262° West 486 559 40,000  Level FlightAware Transoceanic
Tue 02:03:00 AM 35.3649 162.7877 262° West 486 559 40,000  Level FlightAware Transoceanic
Tue 02:04:00 AM 35.3452 162.6230 262° West 486 559 40,000  Level FlightAware Transoceanic
Tue 02:05:00 AM 35.3253 162.4584 262° West 486 559 40,000  Level FlightAware Transoceanic
Tue 02:06:00 AM 35.3052 162.2939 261° West 486 559 40,000  Level FlightAware Transoceanic
Tue 02:07:00 AM 35.2848 162.1295 261° West 486 559 40,000  Level FlightAware Transoceanic
Tue 02:08:00 AM 35.2642 161.9652 261° West 486 559 40,000  Level FlightAware Transoceanic
Tue 02:09:00 AM 35.2434 161.8009 261° West 486 559 40,000  Level FlightAware Transoceanic
Tue 02:10:00 AM 35.2224 161.6368 261° West 486 559 40,000  Level FlightAware Transoceanic
Tue 02:11:00 AM 35.2011 161.4727 261° West 486 559 40,000  Level FlightAware Transoceanic
Tue 02:12:00 AM 35.1797 161.3087 261° West 486 559 40,000  Level FlightAware Transoceanic
Tue 02:13:00 AM 35.1580 161.1448 261° West 486 559 40,000  Level FlightAware Transoceanic
Tue 02:14:00 AM 35.1361 160.9810 261° West 486 559 40,000  Level FlightAware Transoceanic
Tue 02:15:00 AM 35.1139 160.8173 261° West 486 559 40,000  Level FlightAware Transoceanic
Tue 02:16:00 AM 35.0916 160.6536 260° West 486 559 40,000  Level FlightAware Transoceanic
Tue 02:17:00 AM 35.0690 160.4901 260° West 486 559 40,000  Level FlightAware Transoceanic
Tue 02:18:00 AM 35.0462 160.3266 260° West 486 559 40,000  Level FlightAware Transoceanic
Tue 02:19:00 AM 35.0232 160.1633 260° West 486 559 40,000  Level FlightAware Transoceanic
Tue 02:20:00 AM 35.0000 160.0000 273° West 486 559 40,000  Level FlightAware Transoceanic
Tue 02:21:00 AM 35.0068 159.8308 273° West 486 559 40,000  Level FlightAware Transoceanic
Tue 02:22:00 AM 35.0134 159.6615 273° West 486 559 40,000  Level FlightAware Transoceanic
Tue 02:23:00 AM 35.0198 159.4922 273° West 486 559 40,000  Level FlightAware Transoceanic
Tue 02:24:00 AM 35.0259 159.3230 272° West 486 559 40,000  Level FlightAware Transoceanic
Tue 02:25:00 AM 35.0318 159.1536 272° West 486 559 40,000  Level FlightAware Transoceanic
Tue 02:26:00 AM 35.0375 158.9843 272° West 486 559 40,000  Level FlightAware Transoceanic
Tue 02:27:00 AM 35.0429 158.8149 272° West 486 559 40,000  Level FlightAware Transoceanic
Tue 02:28:00 AM 35.0481 158.6455 272° West 486 559 40,000  Level FlightAware Transoceanic
Tue 02:29:00 AM 35.0531 158.4761 272° West 486 559 40,000  Level FlightAware Transoceanic
Tue 02:30:00 AM 35.0578 158.3067 272° West 486 559 40,000  Level FlightAware Transoceanic
Tue 02:31:00 AM 35.0623 158.1372 272° West 486 559 40,000  Level FlightAware Transoceanic
Tue 02:32:00 AM 35.0665 157.9677 272° West 486 559 40,000  Level FlightAware Transoceanic
Tue 02:33:00 AM 35.0705 157.7982 272° West 486 559 40,000  Level FlightAware Transoceanic
Tue 02:34:00 AM 35.0743 157.6287 272° West 486 559 40,000  Level FlightAware Transoceanic
Tue 02:35:00 AM 35.0779 157.4592 271° West 486 559 40,000  Level FlightAware Transoceanic
Tue 02:36:00 AM 35.0812 157.2897 271° West 486 559 40,000  Level FlightAware Transoceanic
Tue 02:37:00 AM 35.0843 157.1201 271° West 486 559 40,000  Level FlightAware Transoceanic
Tue 02:38:00 AM 35.0871 156.9505 271° West 486 559 40,000  Level FlightAware Transoceanic
Tue 02:39:00 AM 35.0897 156.7810 271° West 486 559 40,000  Level FlightAware Transoceanic
Tue 02:40:00 AM 35.0920 156.6114 271° West 486 559 40,000  Level FlightAware Transoceanic
Tue 02:41:00 AM 35.0942 156.4418 271° West 486 559 40,000  Level FlightAware Transoceanic
Tue 02:42:00 AM 35.0961 156.2722 271° West 486 559 40,000  Level FlightAware Transoceanic
Tue 02:43:00 AM 35.0977 156.1026 271° West 486 559 40,000  Level FlightAware Transoceanic
Tue 02:44:00 AM 35.0991 155.9330 271° West 486 559 40,000  Level FlightAware Transoceanic
Tue 02:45:00 AM 35.1003 155.7633 270° West 486 559 40,000  Level FlightAware Transoceanic
Tue 02:46:00 AM 35.1012 155.5937 270° West 486 559 40,000  Level FlightAware Transoceanic
Tue 02:47:00 AM 35.1020 155.4241 270° West 486 559 40,000  Level FlightAware Transoceanic
Tue 02:48:00 AM 35.1024 155.2545 270° West 486 559 40,000  Level FlightAware Transoceanic
Tue 02:49:00 AM 35.1027 155.0848 270° West 486 559 40,000  Level FlightAware Transoceanic
Tue 02:50:00 AM 35.1027 154.9152 270° West 486 559 40,000  Level FlightAware Transoceanic
Tue 02:51:00 AM 35.1024 154.7455 270° West 486 559 40,000  Level FlightAware Transoceanic
Tue 02:52:00 AM 35.1020 154.5759 270° West 486 559 40,000  Level FlightAware Transoceanic
Tue 02:53:00 AM 35.1012 154.4063 270° West 486 559 40,000  Level FlightAware Transoceanic
Tue 02:54:00 AM 35.1003 154.2367 270° West 486 559 40,000  Level FlightAware Transoceanic
Tue 02:55:00 AM 35.0991 154.0670 269° West 486 559 40,000  Level FlightAware Transoceanic
Tue 02:56:00 AM 35.0977 153.8974 269° West 486 559 40,000  Level FlightAware Transoceanic
Tue 02:57:00 AM 35.0961 153.7278 269° West 486 559 40,000  Level FlightAware Transoceanic
Tue 02:58:00 AM 35.0942 153.5582 269° West 486 559 40,000  Level FlightAware Transoceanic
Tue 02:59:00 AM 35.0920 153.3886 269° West 486 559 40,000  Level FlightAware Transoceanic
Tue 03:00:00 AM 35.0897 153.2190 269° West 486 559 40,000  Level FlightAware Transoceanic
Tue 03:01:00 AM 35.0871 153.0495 269° West 486 559 40,000  Level FlightAware Transoceanic
Tue 03:02:00 AM 35.0843 152.8799 269° West 486 559 40,000  Level FlightAware Transoceanic
Tue 03:03:00 AM 35.0812 152.7103 269° West 486 559 40,000  Level FlightAware Transoceanic
Tue 03:04:00 AM 35.0779 152.5408 269° West 486 559 40,000  Level FlightAware Transoceanic
Tue 03:05:00 AM 35.0743 152.3713 268° West 486 559 40,000  Level FlightAware Transoceanic
Tue 03:06:00 AM 35.0705 152.2018 268° West 486 559 40,000  Level FlightAware Transoceanic
Tue 03:07:00 AM 35.0665 152.0323 268° West 486 559 40,000  Level FlightAware Transoceanic
Tue 03:08:00 AM 35.0623 151.8628 268° West 486 559 40,000  Level FlightAware Transoceanic
Tue 03:09:00 AM 35.0578 151.6933 268° West 486 559 40,000  Level FlightAware Transoceanic
Tue 03:10:00 AM 35.0531 151.5239 268° West 486 559 40,000  Level FlightAware Transoceanic
Tue 03:11:00 AM 35.0481 151.3545 268° West 486 559 40,000  Level FlightAware Transoceanic
Tue 03:12:00 AM 35.0429 151.1851 268° West 486 559 40,000  Level FlightAware Transoceanic
Tue 03:13:00 AM 35.0375 151.0157 268° West 486 559 40,000  Level FlightAware Transoceanic
Tue 03:14:00 AM 35.0318 150.8464 268° West 486 559 40,000  Level FlightAware Transoceanic
Tue 03:15:00 AM 35.0259 150.6770 268° West 486 559 40,000  Level FlightAware Transoceanic
Tue 03:16:00 AM 35.0198 150.5078 267° West 486 559 40,000  Level FlightAware Transoceanic
Tue 03:17:00 AM 35.0134 150.3385 267° West 486 559 40,000  Level FlightAware Transoceanic
Tue 03:18:00 AM 35.0068 150.1692 267° West 486 559 40,000  Level FlightAware Transoceanic
Tue 03:19:00 AM 35.0004 150.0095 267° West  Level FlightAware Approximate
Tue 03:20:00 AM 34.9938 149.8499 267° West  Level FlightAware Approximate
Tue 03:21:00 AM 35.0133 149.8602 277° West  Level FlightAware Approximate
Tue 03:22:00 AM 35.0282 149.7013 277° West  Level FlightAware Approximate
Tue 03:23:00 AM 35.0429 149.5424 276° West  Level FlightAware Approximate
Tue 03:24:00 AM 35.0574 149.3834 276° West  Level FlightAware Approximate
Tue 03:25:00 AM 35.0717 149.2244 276° West  Level FlightAware Approximate
Tue 03:26:00 AM 35.0858 149.0653 276° West  Level FlightAware Approximate
Tue 03:27:00 AM 35.0996 148.9061 276° West  Level FlightAware Approximate
Tue 03:28:00 AM 35.1133 148.7469 276° West  Level FlightAware Approximate
Tue 03:29:00 AM 35.1268 148.5877 276° West  Level FlightAware Approximate
Tue 03:30:00 AM 35.1400 148.4284 276° West  Level FlightAware Approximate
Tue 03:31:00 AM 35.1530 148.2690 276° West  Level FlightAware Approximate
Tue 03:32:00 AM 35.1659 148.1096 276° West  Level FlightAware Approximate
Tue 03:33:00 AM 35.1785 147.9501 276° West  Level FlightAware Approximate
Tue 03:34:00 AM 35.1909 147.7906 275° West  Level FlightAware Approximate
Tue 03:35:00 AM 35.2031 147.6311 275° West  Level FlightAware Approximate
Tue 03:36:00 AM 35.2151 147.4715 275° West  Level FlightAware Approximate
Tue 03:37:00 AM 35.2269 147.3118 275° West  Level FlightAware Approximate
Tue 03:38:00 AM 35.2384 147.1521 275° West  Level FlightAware Approximate
Tue 03:39:00 AM 35.2498 146.9924 275° West  Level FlightAware Approximate
Tue 03:40:00 AM 35.2609 146.8326 275° West  Level FlightAware Approximate
Tue 03:41:00 AM 35.2719 146.6728 275° West  Level FlightAware Approximate
Tue 03:42:00 AM 35.2826 146.5129 275° West  Level FlightAware Approximate
Tue 03:43:00 AM 35.2932 146.3530 275° West  Level FlightAware Approximate
Tue 03:44:00 AM 35.3035 146.1931 275° West  Level FlightAware Approximate
Tue 03:45:00 AM 35.3136 146.0331 274° West  Level FlightAware Approximate
Tue 03:46:00 AM 35.3140 145.8728 268° West  Level FlightAware Approximate
Tue 03:47:00 AM 35.3099 145.7124 268° West  Level FlightAware Approximate
Tue 03:48:00 AM 35.3057 145.5520 268° West  Level FlightAware Approximate
Tue 03:49:00 AM 35.3012 145.3916 268° West  Level FlightAware Approximate
Tue 03:50:00 AM 35.2956 145.2313 267° West  Level FlightAware Approximate
Tue 03:51:00 AM 35.2895 145.0710 267° West  Level FlightAware Approximate
Tue 03:52:00 AM 35.2831 144.9108 267° West  Level FlightAware Approximate
Tue 03:52:06 AM 35.2940 144.4240 267° West 505 581 40,000  Level FlightAware ADS-B
Tue 03:52:49 AM 35.3100 144.3280 282° West 506 582 40,000  Level FlightAware ADS-B
Tue 03:53:00 AM 35.2766 144.7506 267° West  Level FlightAware Approximate
Tue 03:53:25 AM 35.3240 144.2420 281° West 506 582 40,000  Level FlightAware ADS-B
Tue 03:54:01 AM 35.3370 144.1560 281° West 506 582 40,000  Level FlightAware ADS-B
Tue 03:54:37 AM 35.3510 144.0690 281° West 506 582 40,000  Level FlightAware ADS-B
Tue 03:55:13 AM 35.3650 143.9830 281° West 506 582 40,000 -2,348 Level FlightAware ADS-B
Tue 03:55:46 AM 35.3980 143.8060 283° West 516 594 37,300 -2,357 Descending FlightAware ADS-B
Tue 03:56:37 AM 35.4200 143.6690 281° West 519 597 36,700 -1,412 Descending FlightAware ADS-B
Tue 03:57:11 AM 35.4390 143.5590 282° West 519 597 35,300 -1,739 Descending FlightAware ADS-B
Tue 03:57:46 AM 35.4560 143.4600 282° West 519 597 34,700 -676 Descending FlightAware ADS-B
Tue 03:58:22 AM 35.4690 143.3740 281° West 520 598 34,500 -1,200 Descending FlightAware ADS-B
Tue 03:58:56 AM 35.4860 143.2760 282° West 522 601 33,300 -1,342 Descending FlightAware ADS-B
Tue 03:59:38 AM 35.5040 143.1580 281° West 522 601 32,800 -1,482 Descending FlightAware ADS-B
Tue 04:00:21 AM 35.5260 143.0230 281° West 522 601 31,200 -1,500 Descending FlightAware ADS-B
Tue 04:00:58 AM 35.5420 142.9210 281° West 522 601 30,800 -835 Descending FlightAware ADS-B
Tue 04:01:40 AM 35.5590 142.8130 281° West 522 601 30,100 -477 Descending FlightAware ADS-B
Tue 04:02:26 AM 35.5850 142.6470 281° West 527 606 30,100 -135 Level FlightAware ADS-B
Tue 04:03:09 AM 35.6040 142.5250 281° West 503 579 29,900 -811 Descending FlightAware ADS-B
Tue 04:03:40 AM 35.6170 142.4450 281° West 493 567 29,100 -1,846 Descending FlightAware ADS-B
Tue 04:04:14 AM 35.6310 142.3520 281° West 485 558 27,900 -2,282 Descending FlightAware ADS-B
Tue 04:04:51 AM 35.6480 142.2410 281° West 476 548 26,400 -2,250 Descending FlightAware ADS-B
Tue 04:05:26 AM 35.6620 142.1490 281° West 470 541 25,200 -2,071 Descending FlightAware ADS-B
Tue 04:06:15 AM 35.6800 142.0290 280° West 461 531 23,500 -2,169 Descending FlightAware ADS-B
Tue 04:06:49 AM 35.6930 141.9420 280° West 452 520 22,200 -2,222 Descending FlightAware ADS-B
Tue 04:07:36 AM 35.7110 141.8190 280° West 444 511 20,500 -2,203 Descending FlightAware ADS-B
Tue 04:08:08 AM 35.7230 141.7410 281° West 437 503 19,300 -2,100 Descending FlightAware ADS-B
Tue 04:08:56 AM 35.7390 141.6310 280° West 425 489 17,700 -2,043 Descending FlightAware ADS-B
Tue 04:09:42 AM 35.7550 141.5230 280° West 414 476 16,100 -2,025 Descending FlightAware ADS-B
Tue 04:10:16 AM 35.7650 141.4500 280° West 406 467 15,000 -1,800 Descending FlightAware ADS-B
Tue 04:11:22 AM 35.7830 141.3270 280° West 392 451 13,100 -2,165 Descending FlightAware ADS-B
Tue 04:11:53 AM 35.7980 141.2260 280° West 384 442 11,500 -1,969 Descending FlightAware ADS-B
Tue 04:12:26 AM 35.8080 141.1570 280° West 365 420 11,000 -750 Descending FlightAware ADS-B
Tue 04:13:05 AM 35.8190 141.0800 280° West 331 381 10,600 -514 Descending FlightAware ADS-B
Tue 04:13:36 AM 35.8260 141.0280 279° West 313 360 10,400 -462 Descending FlightAware ADS-B
Tue 04:14:10 AM 35.8360 140.9670 281° West 292 336 10,100 -750 Descending FlightAware ADS-B
Tue 04:14:40 AM 35.8470 140.9190 286° West 289 333 9,600 -1,059 Descending FlightAware ADS-B
Tue 04:15:01 AM 35.8550 140.8870 287° West 287 330 9,200 -1,174 Descending FlightAware ADS-B
Tue 04:15:26 AM 35.8650 140.8480 288° West 286 329 8,700 -1,200 Descending FlightAware ADS-B
Tue 04:15:46 AM 35.8720 140.8170 286° West 284 327 8,300 -1,200 Descending FlightAware ADS-B
Tue 04:15:56 AM 35.8760 140.8010 287° West 283 326 8,100 -1,200 Descending FlightAware ADS-B
Tue 04:16:21 AM 35.8850 140.7630 286° West 279 321 7,600 -1,200 Descending FlightAware ADS-B
Tue 04:16:41 AM 35.8920 140.7320 286° West 280 322 7,200 -1,077 Descending FlightAware ADS-B
Tue 04:17:00 AM 35.8990 140.7010 286° West 280 322 6,900 -750 Descending FlightAware ADS-B
Tue 04:17:21 AM 35.9060 140.6710 286° West 277 319 6,700 -667 Descending FlightAware ADS-B
Tue 04:17:36 AM 35.9120 140.6470 287° West 275 316 6,500 -882 Descending FlightAware ADS-B
Tue 04:17:55 AM 35.9180 140.6170 284° West 274 315 6,200 -857 Descending FlightAware ADS-B
Tue 04:18:25 AM 35.9290 140.5720 287° West 269 310 5,800 -933 Descending FlightAware ADS-B
Tue 04:18:40 AM 35.9330 140.5500 283° West 270 311 5,500 -1,200 Descending FlightAware ADS-B
Tue 04:19:00 AM 35.9400 140.5200 286° West 270 311 5,100 -1,050 Descending FlightAware ADS-B
Tue 04:19:20 AM 35.9460 140.4910 284° West 267 307 4,800 -1,029 Descending FlightAware ADS-B
Tue 04:19:35 AM 35.9510 140.4690 286° West 267 307 4,500 -1,200 Descending FlightAware ADS-B
Tue 04:19:55 AM 35.9570 140.4380 283° West 265 305 4,100 -878 Descending FlightAware ADS-B
Tue 04:20:16 AM 35.9600 140.4130 278° West 259 298 3,900 -686 Descending FlightAware ADS-B
Tue 04:20:30 AM 35.9620 140.3860 275° West 248 285 3,700 -588 Descending FlightAware ADS-B
Tue 04:21:07 AM 35.9590 140.3420 265° West 223 257 3,400 -453 Descending FlightAware ADS-B
Tue 04:21:23 AM 35.9540 140.3270 248° West 212 244 3,300 -621 Descending FlightAware ADS-B
Tue 04:21:36 AM 35.9420 140.3130 223° Southwest 192 221 3,100 -1,000 Descending FlightAware ADS-B
Tue 04:21:41 AM 35.9380 140.3110 202° Southwest 188 216 3,000 -800 Descending FlightAware ADS-B
Tue 04:21:51 AM 35.9290 140.3090 190° South 181 208 2,900 -600 Descending FlightAware ADS-B
Tue 04:22:11 AM 35.9130 140.3080 183° South 172 198 2,700 -706 Descending FlightAware ADS-B
Tue 04:22:25 AM 35.9020 140.3110 168° South 166 191 2,500 -750 Descending FlightAware ADS-B
Tue 04:22:43 AM 35.8900 140.3170 158° South 150 173 2,300 -938 Descending FlightAware ADS-B
Tue 04:22:57 AM 35.8820 140.3220 153° Southeast 144 166 2,000 -789 Descending FlightAware ADS-B
Tue 04:23:21 AM 35.8680 140.3320 150° Southeast 133 153 1,800 -818 Descending FlightAware ADS-B
Tue 04:23:41 AM 35.8580 140.3400 147° Southeast 129 148 1,400 -1,059 Descending FlightAware ADS-B
Tue 04:23:55 AM 35.8510 140.3450 150° Southeast 129 148 1,200 -706 Descending FlightAware ADS-B
Tue 04:24:15 AM 35.8410 140.3520 150° Southeast 130 150 1,000 -698 Descending FlightAware ADS-B
Tue 04:24:38 AM 35.8290 140.3610 149° Southeast 126 145 700 -686 Descending FlightAware ADS-B
Tue 04:24:50 AM 35.8230 140.3660 146° Southeast 126 145 600 -600 Descending FlightAware ADS-B
Tue 04:25:08 AM 35.8140 140.3720 152° Southeast 128 147 400 -310 Descending FlightAware ADS-B
Tue 04:25:48 AM 35.7950 140.3860 149° Southeast 127 146 300 -150 Descending FlightAware ADS-B

Login

Don't have an account? Register now (free) for customized features, flight alerts, and more!